
<gpx xmlns="http://www.topografix.com/GPX/1/1" xmlns:gpxx="http://www.garmin.com/xmlschemas/GpxExtensions/v3" xmlns:xsi="http://www.w3.org/2001/XMLSchema-instance" version="1.1" creator="Adze - http://kobotsw.com/apps/adze" xsi:schemaLocation="http://www.topografix.com/GPX/1/1 http://www.topografix.com/GPX/1/1/gpx.xsd http://www.garmin.com/xmlschemas/GpxExtensions/v3 http://www.garmin.com/xmlschemas/GpxExtensionsv3.xsd">
    <metadata>
        <name>Untitled Document</name>
        <link href="http://www.garmin.com"></link>
        <time>2018-02-26T06:40:28.669Z</time>
    </metadata>
    <wpt lon="100.943235" lat="14.518035">
        <ele>48.000000</ele>
        <time>2014-11-01T03:47:06Z</time>
        <name>Baandara Resort</name>
        <cmt>01-NOV-14 10:47:06AM</cmt>
        <desc>01-NOV-14 10:47:06AM</desc>
        <sym>Lodging</sym>
        <extensions>
            <gpxx:WaypointExtension xmlns:gpxx="http://www.garmin.com/xmlschemas/GpxExtensions/v3">
                <gpxx:DisplayMode>SymbolAndName</gpxx:DisplayMode>
            </gpxx:WaypointExtension>
        </extensions>
    </wpt>
    <trk>
        <name>Sunday</name>
        <extensions>
            <gpxx:TrackExtension xmlns:gpxx="http://www.garmin.com/xmlschemas/GpxExtensions/v3">
                <gpxx:DisplayColor>Green</gpxx:DisplayColor>
            </gpxx:TrackExtension>
        </extensions>
        <trkseg>
            <trkpt lon="100.943327" lat="14.518449">
                <ele>18.880000</ele>
                <time>2014-11-02T02:59:17Z</time>
            </trkpt>
            <trkpt lon="100.943285" lat="14.518452">
                <ele>19.360000</ele>
                <time>2014-11-02T02:59:22Z</time>
            </trkpt>
            <trkpt lon="100.943206" lat="14.518593">
                <ele>19.360000</ele>
                <time>2014-11-02T02:59:34Z</time>
            </trkpt>
            <trkpt lon="100.943188" lat="14.518656">
                <ele>19.360000</ele>
                <time>2014-11-02T02:59:37Z</time>
            </trkpt>
            <trkpt lon="100.942898" lat="14.518666">
                <ele>21.770000</ele>
                <time>2014-11-02T02:59:50Z</time>
            </trkpt>
            <trkpt lon="100.942856" lat="14.518669">
                <ele>22.250000</ele>
                <time>2014-11-02T02:59:52Z</time>
            </trkpt>
            <trkpt lon="100.942818" lat="14.518725">
                <ele>22.730000</ele>
                <time>2014-11-02T02:59:56Z</time>
            </trkpt>
            <trkpt lon="100.942816" lat="14.518749">
                <ele>21.770000</ele>
                <time>2014-11-02T02:59:57Z</time>
            </trkpt>
            <trkpt lon="100.942817" lat="14.518775">
                <ele>22.730000</ele>
                <time>2014-11-02T02:59:58Z</time>
            </trkpt>
            <trkpt lon="100.942841" lat="14.519330">
                <ele>21.770000</ele>
                <time>2014-11-02T03:00:13Z</time>
            </trkpt>
            <trkpt lon="100.942826" lat="14.520111">
                <ele>21.770000</ele>
                <time>2014-11-02T03:00:31Z</time>
            </trkpt>
            <trkpt lon="100.942781" lat="14.520995">
                <ele>21.770000</ele>
                <time>2014-11-02T03:00:51Z</time>
            </trkpt>
            <trkpt lon="100.942763" lat="14.521612">
                <ele>21.290000</ele>
                <time>2014-11-02T03:01:05Z</time>
            </trkpt>
            <trkpt lon="100.942789" lat="14.521624">
                <ele>21.290000</ele>
                <time>2014-11-02T03:01:06Z</time>
            </trkpt>
            <trkpt lon="100.942828" lat="14.521631">
                <ele>21.290000</ele>
                <time>2014-11-02T03:01:07Z</time>
            </trkpt>
            <trkpt lon="100.942877" lat="14.521631">
                <ele>21.290000</ele>
                <time>2014-11-02T03:01:08Z</time>
            </trkpt>
            <trkpt lon="100.942930" lat="14.521621">
                <ele>21.290000</ele>
                <time>2014-11-02T03:01:09Z</time>
            </trkpt>
            <trkpt lon="100.942986" lat="14.521604">
                <ele>21.770000</ele>
                <time>2014-11-02T03:01:10Z</time>
            </trkpt>
            <trkpt lon="100.943046" lat="14.521583">
                <ele>20.810000</ele>
                <time>2014-11-02T03:01:11Z</time>
            </trkpt>
            <trkpt lon="100.944262" lat="14.521100">
                <ele>18.880000</ele>
                <time>2014-11-02T03:01:29Z</time>
            </trkpt>
            <trkpt lon="100.945535" lat="14.520589">
                <ele>16.960000</ele>
                <time>2014-11-02T03:01:47Z</time>
            </trkpt>
            <trkpt lon="100.947255" lat="14.519840">
                <ele>15.040000</ele>
                <time>2014-11-02T03:02:12Z</time>
            </trkpt>
            <trkpt lon="100.948469" lat="14.519167">
                <ele>14.080000</ele>
                <time>2014-11-02T03:02:32Z</time>
            </trkpt>
            <trkpt lon="100.949068" lat="14.518837">
                <ele>14.560000</ele>
                <time>2014-11-02T03:02:43Z</time>
            </trkpt>
            <trkpt lon="100.949120" lat="14.518831">
                <ele>13.600000</ele>
                <time>2014-11-02T03:02:44Z</time>
            </trkpt>
            <trkpt lon="100.949170" lat="14.518836">
                <ele>14.080000</ele>
                <time>2014-11-02T03:02:45Z</time>
            </trkpt>
            <trkpt lon="100.949282" lat="14.518862">
                <ele>12.630000</ele>
                <time>2014-11-02T03:02:48Z</time>
            </trkpt>
            <trkpt lon="100.949389" lat="14.518926">
                <ele>12.150000</ele>
                <time>2014-11-02T03:03:00Z</time>
            </trkpt>
            <trkpt lon="100.949509" lat="14.518952">
                <ele>12.150000</ele>
                <time>2014-11-02T03:03:11Z</time>
            </trkpt>
            <trkpt lon="100.949612" lat="14.518877">
                <ele>11.670000</ele>
                <time>2014-11-02T03:03:20Z</time>
            </trkpt>
            <trkpt lon="100.949772" lat="14.518795">
                <ele>10.710000</ele>
                <time>2014-11-02T03:03:35Z</time>
            </trkpt>
            <trkpt lon="100.949785" lat="14.518756">
                <ele>11.190000</ele>
                <time>2014-11-02T03:03:46Z</time>
            </trkpt>
            <trkpt lon="100.949783" lat="14.518737">
                <ele>11.190000</ele>
                <time>2014-11-02T03:03:50Z</time>
            </trkpt>
            <trkpt lon="100.949782" lat="14.518699">
                <ele>11.190000</ele>
                <time>2014-11-02T03:03:54Z</time>
            </trkpt>
            <trkpt lon="100.949811" lat="14.518650">
                <ele>12.630000</ele>
                <time>2014-11-02T03:03:58Z</time>
            </trkpt>
            <trkpt lon="100.949849" lat="14.518599">
                <ele>13.600000</ele>
                <time>2014-11-02T03:04:03Z</time>
            </trkpt>
            <trkpt lon="100.949963" lat="14.518562">
                <ele>13.120000</ele>
                <time>2014-11-02T03:04:11Z</time>
            </trkpt>
            <trkpt lon="100.950030" lat="14.518590">
                <ele>13.600000</ele>
                <time>2014-11-02T03:04:18Z</time>
            </trkpt>
            <trkpt lon="100.950179" lat="14.518565">
                <ele>13.120000</ele>
                <time>2014-11-02T03:04:30Z</time>
            </trkpt>
            <trkpt lon="100.950408" lat="14.518591">
                <ele>13.120000</ele>
                <time>2014-11-02T03:04:44Z</time>
            </trkpt>
            <trkpt lon="100.950525" lat="14.518581">
                <ele>13.600000</ele>
                <time>2014-11-02T03:05:00Z</time>
            </trkpt>
            <trkpt lon="100.950590" lat="14.518587">
                <ele>13.600000</ele>
                <time>2014-11-02T03:05:09Z</time>
            </trkpt>
            <trkpt lon="100.950656" lat="14.518572">
                <ele>13.120000</ele>
                <time>2014-11-02T03:05:14Z</time>
            </trkpt>
            <trkpt lon="100.950894" lat="14.518582">
                <ele>13.600000</ele>
                <time>2014-11-02T03:05:30Z</time>
            </trkpt>
            <trkpt lon="100.951236" lat="14.518575">
                <ele>13.120000</ele>
                <time>2014-11-02T03:05:42Z</time>
            </trkpt>
            <trkpt lon="100.951538" lat="14.518544">
                <ele>13.600000</ele>
                <time>2014-11-02T03:05:54Z</time>
            </trkpt>
            <trkpt lon="100.951673" lat="14.518535">
                <ele>14.080000</ele>
                <time>2014-11-02T03:06:01Z</time>
            </trkpt>
            <trkpt lon="100.951689" lat="14.518527">
                <ele>13.120000</ele>
                <time>2014-11-02T03:06:02Z</time>
            </trkpt>
            <trkpt lon="100.951705" lat="14.518519">
                <ele>13.120000</ele>
                <time>2014-11-02T03:06:03Z</time>
            </trkpt>
            <trkpt lon="100.951737" lat="14.518524">
                <ele>13.120000</ele>
                <time>2014-11-02T03:06:06Z</time>
            </trkpt>
            <trkpt lon="100.951987" lat="14.518457">
                <ele>14.560000</ele>
                <time>2014-11-02T03:06:18Z</time>
            </trkpt>
            <trkpt lon="100.952375" lat="14.518392">
                <ele>14.560000</ele>
                <time>2014-11-02T03:06:32Z</time>
            </trkpt>
            <trkpt lon="100.952629" lat="14.518322">
                <ele>14.080000</ele>
                <time>2014-11-02T03:06:45Z</time>
            </trkpt>
            <trkpt lon="100.952868" lat="14.518249">
                <ele>15.040000</ele>
                <time>2014-11-02T03:06:56Z</time>
            </trkpt>
            <trkpt lon="100.953421" lat="14.518437">
                <ele>15.520000</ele>
                <time>2014-11-02T03:07:11Z</time>
            </trkpt>
            <trkpt lon="100.954285" lat="14.518784">
                <ele>15.520000</ele>
                <time>2014-11-02T03:07:31Z</time>
            </trkpt>
            <trkpt lon="100.955286" lat="14.519168">
                <ele>14.560000</ele>
                <time>2014-11-02T03:07:50Z</time>
            </trkpt>
            <trkpt lon="100.956176" lat="14.519522">
                <ele>15.520000</ele>
                <time>2014-11-02T03:08:08Z</time>
            </trkpt>
            <trkpt lon="100.957027" lat="14.519840">
                <ele>15.520000</ele>
                <time>2014-11-02T03:08:25Z</time>
            </trkpt>
            <trkpt lon="100.957500" lat="14.519987">
                <ele>15.520000</ele>
                <time>2014-11-02T03:08:37Z</time>
            </trkpt>
            <trkpt lon="100.957615" lat="14.519760">
                <ele>15.040000</ele>
                <time>2014-11-02T03:08:46Z</time>
            </trkpt>
            <trkpt lon="100.957660" lat="14.519583">
                <ele>14.560000</ele>
                <time>2014-11-02T03:09:02Z</time>
            </trkpt>
            <trkpt lon="100.957658" lat="14.519587">
                <ele>14.080000</ele>
                <time>2014-11-02T03:09:16Z</time>
            </trkpt>
            <trkpt lon="100.957666" lat="14.519576">
                <ele>13.120000</ele>
                <time>2014-11-02T03:09:25Z</time>
            </trkpt>
            <trkpt lon="100.957736" lat="14.519531">
                <ele>14.080000</ele>
                <time>2014-11-02T03:09:30Z</time>
            </trkpt>
            <trkpt lon="100.957765" lat="14.519485">
                <ele>15.520000</ele>
                <time>2014-11-02T03:09:34Z</time>
            </trkpt>
            <trkpt lon="100.957962" lat="14.519296">
                <ele>15.040000</ele>
                <time>2014-11-02T03:09:47Z</time>
            </trkpt>
            <trkpt lon="100.958201" lat="14.519118">
                <ele>16.000000</ele>
                <time>2014-11-02T03:10:02Z</time>
            </trkpt>
            <trkpt lon="100.958212" lat="14.519111">
                <ele>16.000000</ele>
                <time>2014-11-02T03:10:03Z</time>
            </trkpt>
            <trkpt lon="100.958395" lat="14.519015">
                <ele>15.520000</ele>
                <time>2014-11-02T03:10:17Z</time>
            </trkpt>
            <trkpt lon="100.958451" lat="14.519045">
                <ele>16.000000</ele>
                <time>2014-11-02T03:10:28Z</time>
            </trkpt>
            <trkpt lon="100.958476" lat="14.519073">
                <ele>15.520000</ele>
                <time>2014-11-02T03:10:38Z</time>
            </trkpt>
            <trkpt lon="100.958618" lat="14.519254">
                <ele>16.000000</ele>
                <time>2014-11-02T03:10:52Z</time>
            </trkpt>
            <trkpt lon="100.958737" lat="14.519411">
                <ele>16.000000</ele>
                <time>2014-11-02T03:11:08Z</time>
            </trkpt>
            <trkpt lon="100.958746" lat="14.519477">
                <ele>16.000000</ele>
                <time>2014-11-02T03:11:19Z</time>
            </trkpt>
            <trkpt lon="100.958725" lat="14.519514">
                <ele>15.520000</ele>
                <time>2014-11-02T03:11:25Z</time>
            </trkpt>
            <trkpt lon="100.958686" lat="14.519596">
                <ele>15.520000</ele>
                <time>2014-11-02T03:11:30Z</time>
            </trkpt>
            <trkpt lon="100.958765" lat="14.519713">
                <ele>16.480000</ele>
                <time>2014-11-02T03:11:36Z</time>
            </trkpt>
            <trkpt lon="100.958974" lat="14.519822">
                <ele>16.000000</ele>
                <time>2014-11-02T03:11:45Z</time>
            </trkpt>
            <trkpt lon="100.959112" lat="14.520032">
                <ele>16.000000</ele>
                <time>2014-11-02T03:11:56Z</time>
            </trkpt>
            <trkpt lon="100.959116" lat="14.520060">
                <ele>16.480000</ele>
                <time>2014-11-02T03:11:57Z</time>
            </trkpt>
            <trkpt lon="100.959309" lat="14.520424">
                <ele>16.480000</ele>
                <time>2014-11-02T03:12:11Z</time>
            </trkpt>
            <trkpt lon="100.959377" lat="14.520750">
                <ele>16.480000</ele>
                <time>2014-11-02T03:12:22Z</time>
            </trkpt>
            <trkpt lon="100.959400" lat="14.520774">
                <ele>16.480000</ele>
                <time>2014-11-02T03:12:23Z</time>
            </trkpt>
            <trkpt lon="100.959966" lat="14.521242">
                <ele>17.440000</ele>
                <time>2014-11-02T03:12:41Z</time>
            </trkpt>
            <trkpt lon="100.960641" lat="14.521606">
                <ele>16.960000</ele>
                <time>2014-11-02T03:12:56Z</time>
            </trkpt>
            <trkpt lon="100.960728" lat="14.521663">
                <ele>17.440000</ele>
                <time>2014-11-02T03:12:58Z</time>
            </trkpt>
            <trkpt lon="100.960762" lat="14.521702">
                <ele>16.480000</ele>
                <time>2014-11-02T03:12:59Z</time>
            </trkpt>
            <trkpt lon="100.960787" lat="14.521746">
                <ele>16.960000</ele>
                <time>2014-11-02T03:13:00Z</time>
            </trkpt>
            <trkpt lon="100.960801" lat="14.521797">
                <ele>16.960000</ele>
                <time>2014-11-02T03:13:01Z</time>
            </trkpt>
            <trkpt lon="100.960807" lat="14.521850">
                <ele>16.960000</ele>
                <time>2014-11-02T03:13:02Z</time>
            </trkpt>
            <trkpt lon="100.960810" lat="14.521904">
                <ele>17.440000</ele>
                <time>2014-11-02T03:13:03Z</time>
            </trkpt>
            <trkpt lon="100.960822" lat="14.523080">
                <ele>16.480000</ele>
                <time>2014-11-02T03:13:24Z</time>
            </trkpt>
            <trkpt lon="100.960825" lat="14.523189">
                <ele>16.480000</ele>
                <time>2014-11-02T03:13:26Z</time>
            </trkpt>
            <trkpt lon="100.960838" lat="14.523240">
                <ele>16.480000</ele>
                <time>2014-11-02T03:13:27Z</time>
            </trkpt>
            <trkpt lon="100.960868" lat="14.523284">
                <ele>16.480000</ele>
                <time>2014-11-02T03:13:28Z</time>
            </trkpt>
            <trkpt lon="100.960911" lat="14.523318">
                <ele>16.960000</ele>
                <time>2014-11-02T03:13:29Z</time>
            </trkpt>
            <trkpt lon="100.960961" lat="14.523342">
                <ele>16.960000</ele>
                <time>2014-11-02T03:13:30Z</time>
            </trkpt>
            <trkpt lon="100.961017" lat="14.523359">
                <ele>16.960000</ele>
                <time>2014-11-02T03:13:31Z</time>
            </trkpt>
            <trkpt lon="100.961073" lat="14.523369">
                <ele>16.480000</ele>
                <time>2014-11-02T03:13:32Z</time>
            </trkpt>
            <trkpt lon="100.961132" lat="14.523378">
                <ele>16.000000</ele>
                <time>2014-11-02T03:13:33Z</time>
            </trkpt>
            <trkpt lon="100.961363" lat="14.523425">
                <ele>16.000000</ele>
                <time>2014-11-02T03:13:37Z</time>
            </trkpt>
            <trkpt lon="100.961416" lat="14.523448">
                <ele>16.480000</ele>
                <time>2014-11-02T03:13:38Z</time>
            </trkpt>
            <trkpt lon="100.961800" lat="14.523692">
                <ele>16.480000</ele>
                <time>2014-11-02T03:13:46Z</time>
            </trkpt>
            <trkpt lon="100.961852" lat="14.523713">
                <ele>16.480000</ele>
                <time>2014-11-02T03:13:47Z</time>
            </trkpt>
            <trkpt lon="100.961906" lat="14.523728">
                <ele>16.480000</ele>
                <time>2014-11-02T03:13:48Z</time>
            </trkpt>
            <trkpt lon="100.962877" lat="14.524027">
                <ele>17.920000</ele>
                <time>2014-11-02T03:14:07Z</time>
            </trkpt>
            <trkpt lon="100.963826" lat="14.524281">
                <ele>17.920000</ele>
                <time>2014-11-02T03:14:26Z</time>
            </trkpt>
            <trkpt lon="100.963872" lat="14.524293">
                <ele>17.440000</ele>
                <time>2014-11-02T03:14:27Z</time>
            </trkpt>
            <trkpt lon="100.963914" lat="14.524312">
                <ele>17.920000</ele>
                <time>2014-11-02T03:14:28Z</time>
            </trkpt>
            <trkpt lon="100.963953" lat="14.524340">
                <ele>17.920000</ele>
                <time>2014-11-02T03:14:29Z</time>
            </trkpt>
            <trkpt lon="100.963983" lat="14.524377">
                <ele>17.920000</ele>
                <time>2014-11-02T03:14:30Z</time>
            </trkpt>
            <trkpt lon="100.964002" lat="14.524426">
                <ele>17.920000</ele>
                <time>2014-11-02T03:14:31Z</time>
            </trkpt>
            <trkpt lon="100.964009" lat="14.524478">
                <ele>17.440000</ele>
                <time>2014-11-02T03:14:32Z</time>
            </trkpt>
            <trkpt lon="100.964009" lat="14.524532">
                <ele>17.440000</ele>
                <time>2014-11-02T03:14:33Z</time>
            </trkpt>
            <trkpt lon="100.964007" lat="14.524585">
                <ele>17.920000</ele>
                <time>2014-11-02T03:14:34Z</time>
            </trkpt>
            <trkpt lon="100.964049" lat="14.525542">
                <ele>17.920000</ele>
                <time>2014-11-02T03:14:52Z</time>
            </trkpt>
            <trkpt lon="100.964123" lat="14.526142">
                <ele>17.440000</ele>
                <time>2014-11-02T03:15:05Z</time>
            </trkpt>
            <trkpt lon="100.964153" lat="14.526162">
                <ele>17.440000</ele>
                <time>2014-11-02T03:15:06Z</time>
            </trkpt>
            <trkpt lon="100.964193" lat="14.526167">
                <ele>17.920000</ele>
                <time>2014-11-02T03:15:07Z</time>
            </trkpt>
            <trkpt lon="100.964884" lat="14.526176">
                <ele>17.920000</ele>
                <time>2014-11-02T03:15:21Z</time>
            </trkpt>
            <trkpt lon="100.965846" lat="14.526192">
                <ele>17.440000</ele>
                <time>2014-11-02T03:15:39Z</time>
            </trkpt>
            <trkpt lon="100.966712" lat="14.526202">
                <ele>17.920000</ele>
                <time>2014-11-02T03:15:55Z</time>
            </trkpt>
            <trkpt lon="100.967762" lat="14.526178">
                <ele>18.400000</ele>
                <time>2014-11-02T03:16:14Z</time>
            </trkpt>
            <trkpt lon="100.968338" lat="14.526087">
                <ele>17.920000</ele>
                <time>2014-11-02T03:16:25Z</time>
            </trkpt>
            <trkpt lon="100.968372" lat="14.526060">
                <ele>17.920000</ele>
                <time>2014-11-02T03:16:26Z</time>
            </trkpt>
            <trkpt lon="100.968391" lat="14.526025">
                <ele>17.440000</ele>
                <time>2014-11-02T03:16:27Z</time>
            </trkpt>
            <trkpt lon="100.968395" lat="14.525989">
                <ele>18.400000</ele>
                <time>2014-11-02T03:16:28Z</time>
            </trkpt>
            <trkpt lon="100.968387" lat="14.525951">
                <ele>17.440000</ele>
                <time>2014-11-02T03:16:29Z</time>
            </trkpt>
            <trkpt lon="100.968375" lat="14.525914">
                <ele>18.400000</ele>
                <time>2014-11-02T03:16:30Z</time>
            </trkpt>
            <trkpt lon="100.968323" lat="14.525725">
                <ele>17.920000</ele>
                <time>2014-11-02T03:16:37Z</time>
            </trkpt>
            <trkpt lon="100.968332" lat="14.525714">
                <ele>17.920000</ele>
                <time>2014-11-02T03:16:52Z</time>
            </trkpt>
            <trkpt lon="100.968332" lat="14.525718">
                <ele>17.920000</ele>
                <time>2014-11-02T03:17:18Z</time>
            </trkpt>
            <trkpt lon="100.968321" lat="14.525693">
                <ele>17.920000</ele>
                <time>2014-11-02T03:17:27Z</time>
            </trkpt>
            <trkpt lon="100.968265" lat="14.525397">
                <ele>19.360000</ele>
                <time>2014-11-02T03:17:39Z</time>
            </trkpt>
            <trkpt lon="100.968251" lat="14.524945">
                <ele>18.880000</ele>
                <time>2014-11-02T03:17:53Z</time>
            </trkpt>
            <trkpt lon="100.968307" lat="14.524529">
                <ele>18.400000</ele>
                <time>2014-11-02T03:18:07Z</time>
            </trkpt>
            <trkpt lon="100.968378" lat="14.523944">
                <ele>18.880000</ele>
                <time>2014-11-02T03:18:24Z</time>
            </trkpt>
            <trkpt lon="100.968403" lat="14.523710">
                <ele>18.880000</ele>
                <time>2014-11-02T03:18:30Z</time>
            </trkpt>
            <trkpt lon="100.968409" lat="14.523662">
                <ele>18.880000</ele>
                <time>2014-11-02T03:18:31Z</time>
            </trkpt>
            <trkpt lon="100.968509" lat="14.523179">
                <ele>18.880000</ele>
                <time>2014-11-02T03:18:43Z</time>
            </trkpt>
            <trkpt lon="100.968539" lat="14.523176">
                <ele>18.880000</ele>
                <time>2014-11-02T03:18:44Z</time>
            </trkpt>
            <trkpt lon="100.969132" lat="14.523233">
                <ele>18.880000</ele>
                <time>2014-11-02T03:19:02Z</time>
            </trkpt>
            <trkpt lon="100.969558" lat="14.523289">
                <ele>18.880000</ele>
                <time>2014-11-02T03:19:15Z</time>
            </trkpt>
            <trkpt lon="100.970010" lat="14.523329">
                <ele>18.880000</ele>
                <time>2014-11-02T03:19:27Z</time>
            </trkpt>
            <trkpt lon="100.970027" lat="14.523309">
                <ele>18.400000</ele>
                <time>2014-11-02T03:19:28Z</time>
            </trkpt>
            <trkpt lon="100.970035" lat="14.523286">
                <ele>19.360000</ele>
                <time>2014-11-02T03:19:29Z</time>
            </trkpt>
            <trkpt lon="100.970038" lat="14.523257">
                <ele>18.880000</ele>
                <time>2014-11-02T03:19:30Z</time>
            </trkpt>
            <trkpt lon="100.970038" lat="14.523224">
                <ele>19.360000</ele>
                <time>2014-11-02T03:19:31Z</time>
            </trkpt>
            <trkpt lon="100.970035" lat="14.523189">
                <ele>18.880000</ele>
                <time>2014-11-02T03:19:32Z</time>
            </trkpt>
            <trkpt lon="100.969858" lat="14.522357">
                <ele>18.880000</ele>
                <time>2014-11-02T03:19:51Z</time>
            </trkpt>
            <trkpt lon="100.969770" lat="14.521459">
                <ele>19.360000</ele>
                <time>2014-11-02T03:20:09Z</time>
            </trkpt>
            <trkpt lon="100.969776" lat="14.521354">
                <ele>19.360000</ele>
                <time>2014-11-02T03:20:11Z</time>
            </trkpt>
            <trkpt lon="100.969784" lat="14.521302">
                <ele>19.840000</ele>
                <time>2014-11-02T03:20:12Z</time>
            </trkpt>
            <trkpt lon="100.969936" lat="14.520271">
                <ele>19.840000</ele>
                <time>2014-11-02T03:20:31Z</time>
            </trkpt>
            <trkpt lon="100.969954" lat="14.520217">
                <ele>20.320000</ele>
                <time>2014-11-02T03:20:32Z</time>
            </trkpt>
            <trkpt lon="100.969980" lat="14.520167">
                <ele>20.810000</ele>
                <time>2014-11-02T03:20:33Z</time>
            </trkpt>
            <trkpt lon="100.970011" lat="14.520121">
                <ele>20.810000</ele>
                <time>2014-11-02T03:20:34Z</time>
            </trkpt>
            <trkpt lon="100.970044" lat="14.520075">
                <ele>20.320000</ele>
                <time>2014-11-02T03:20:35Z</time>
            </trkpt>
            <trkpt lon="100.970657" lat="14.519519">
                <ele>19.840000</ele>
                <time>2014-11-02T03:20:50Z</time>
            </trkpt>
            <trkpt lon="100.970730" lat="14.519436">
                <ele>19.840000</ele>
                <time>2014-11-02T03:20:52Z</time>
            </trkpt>
            <trkpt lon="100.970758" lat="14.519390">
                <ele>19.840000</ele>
                <time>2014-11-02T03:20:53Z</time>
            </trkpt>
            <trkpt lon="100.970774" lat="14.519341">
                <ele>19.840000</ele>
                <time>2014-11-02T03:20:54Z</time>
            </trkpt>
            <trkpt lon="100.970774" lat="14.519290">
                <ele>20.320000</ele>
                <time>2014-11-02T03:20:55Z</time>
            </trkpt>
            <trkpt lon="100.970761" lat="14.519240">
                <ele>19.840000</ele>
                <time>2014-11-02T03:20:56Z</time>
            </trkpt>
            <trkpt lon="100.970740" lat="14.519193">
                <ele>19.840000</ele>
                <time>2014-11-02T03:20:57Z</time>
            </trkpt>
            <trkpt lon="100.970716" lat="14.519147">
                <ele>20.320000</ele>
                <time>2014-11-02T03:20:58Z</time>
            </trkpt>
            <trkpt lon="100.970508" lat="14.518801">
                <ele>20.320000</ele>
                <time>2014-11-02T03:21:10Z</time>
            </trkpt>
            <trkpt lon="100.970456" lat="14.518711">
                <ele>19.360000</ele>
                <time>2014-11-02T03:21:25Z</time>
            </trkpt>
            <trkpt lon="100.970453" lat="14.518659">
                <ele>19.360000</ele>
                <time>2014-11-02T03:21:41Z</time>
            </trkpt>
            <trkpt lon="100.970493" lat="14.518627">
                <ele>19.360000</ele>
                <time>2014-11-02T03:22:00Z</time>
            </trkpt>
            <trkpt lon="100.970590" lat="14.518584">
                <ele>19.360000</ele>
                <time>2014-11-02T03:22:14Z</time>
            </trkpt>
            <trkpt lon="100.970815" lat="14.518532">
                <ele>19.360000</ele>
                <time>2014-11-02T03:22:37Z</time>
            </trkpt>
            <trkpt lon="100.970892" lat="14.518531">
                <ele>19.360000</ele>
                <time>2014-11-02T03:22:49Z</time>
            </trkpt>
            <trkpt lon="100.970913" lat="14.518523">
                <ele>19.840000</ele>
                <time>2014-11-02T03:22:51Z</time>
            </trkpt>
            <trkpt lon="100.970927" lat="14.518521">
                <ele>18.880000</ele>
                <time>2014-11-02T03:22:52Z</time>
            </trkpt>
            <trkpt lon="100.970945" lat="14.518520">
                <ele>19.840000</ele>
                <time>2014-11-02T03:22:53Z</time>
            </trkpt>
            <trkpt lon="100.971246" lat="14.518456">
                <ele>19.840000</ele>
                <time>2014-11-02T03:23:04Z</time>
            </trkpt>
            <trkpt lon="100.971609" lat="14.518383">
                <ele>19.840000</ele>
                <time>2014-11-02T03:23:18Z</time>
            </trkpt>
            <trkpt lon="100.972042" lat="14.518286">
                <ele>19.840000</ele>
                <time>2014-11-02T03:23:31Z</time>
            </trkpt>
            <trkpt lon="100.972309" lat="14.518212">
                <ele>20.810000</ele>
                <time>2014-11-02T03:23:40Z</time>
            </trkpt>
            <trkpt lon="100.972314" lat="14.518195">
                <ele>20.320000</ele>
                <time>2014-11-02T03:23:41Z</time>
            </trkpt>
            <trkpt lon="100.972311" lat="14.518178">
                <ele>20.320000</ele>
                <time>2014-11-02T03:23:42Z</time>
            </trkpt>
            <trkpt lon="100.972303" lat="14.518163">
                <ele>20.320000</ele>
                <time>2014-11-02T03:23:43Z</time>
            </trkpt>
            <trkpt lon="100.972291" lat="14.518147">
                <ele>20.320000</ele>
                <time>2014-11-02T03:23:44Z</time>
            </trkpt>
            <trkpt lon="100.972277" lat="14.518128">
                <ele>20.810000</ele>
                <time>2014-11-02T03:23:45Z</time>
            </trkpt>
            <trkpt lon="100.972126" lat="14.517848">
                <ele>20.320000</ele>
                <time>2014-11-02T03:23:57Z</time>
            </trkpt>
            <trkpt lon="100.971906" lat="14.517473">
                <ele>20.810000</ele>
                <time>2014-11-02T03:24:10Z</time>
            </trkpt>
            <trkpt lon="100.971839" lat="14.517413">
                <ele>21.290000</ele>
                <time>2014-11-02T03:24:13Z</time>
            </trkpt>
            <trkpt lon="100.971806" lat="14.517410">
                <ele>21.290000</ele>
                <time>2014-11-02T03:24:14Z</time>
            </trkpt>
            <trkpt lon="100.971774" lat="14.517416">
                <ele>21.770000</ele>
                <time>2014-11-02T03:24:15Z</time>
            </trkpt>
            <trkpt lon="100.971741" lat="14.517430">
                <ele>20.810000</ele>
                <time>2014-11-02T03:24:16Z</time>
            </trkpt>
            <trkpt lon="100.971708" lat="14.517444">
                <ele>20.810000</ele>
                <time>2014-11-02T03:24:17Z</time>
            </trkpt>
            <trkpt lon="100.971677" lat="14.517455">
                <ele>21.290000</ele>
                <time>2014-11-02T03:24:18Z</time>
            </trkpt>
            <trkpt lon="100.971649" lat="14.517467">
                <ele>20.810000</ele>
                <time>2014-11-02T03:24:19Z</time>
            </trkpt>
            <trkpt lon="100.971385" lat="14.517574">
                <ele>20.320000</ele>
                <time>2014-11-02T03:24:29Z</time>
            </trkpt>
            <trkpt lon="100.971357" lat="14.517566">
                <ele>20.320000</ele>
                <time>2014-11-02T03:24:30Z</time>
            </trkpt>
            <trkpt lon="100.971334" lat="14.517549">
                <ele>20.320000</ele>
                <time>2014-11-02T03:24:31Z</time>
            </trkpt>
            <trkpt lon="100.971317" lat="14.517524">
                <ele>20.320000</ele>
                <time>2014-11-02T03:24:32Z</time>
            </trkpt>
            <trkpt lon="100.971305" lat="14.517495">
                <ele>20.320000</ele>
                <time>2014-11-02T03:24:33Z</time>
            </trkpt>
            <trkpt lon="100.971125" lat="14.517173">
                <ele>20.810000</ele>
                <time>2014-11-02T03:24:46Z</time>
            </trkpt>
            <trkpt lon="100.971082" lat="14.517150">
                <ele>20.810000</ele>
                <time>2014-11-02T03:24:48Z</time>
            </trkpt>
            <trkpt lon="100.970877" lat="14.517216">
                <ele>20.810000</ele>
                <time>2014-11-02T03:24:56Z</time>
            </trkpt>
            <trkpt lon="100.970854" lat="14.517204">
                <ele>20.810000</ele>
                <time>2014-11-02T03:24:57Z</time>
            </trkpt>
            <trkpt lon="100.970839" lat="14.517185">
                <ele>20.810000</ele>
                <time>2014-11-02T03:24:58Z</time>
            </trkpt>
            <trkpt lon="100.970827" lat="14.517161">
                <ele>20.320000</ele>
                <time>2014-11-02T03:24:59Z</time>
            </trkpt>
            <trkpt lon="100.970819" lat="14.517137">
                <ele>20.810000</ele>
                <time>2014-11-02T03:25:00Z</time>
            </trkpt>
            <trkpt lon="100.970817" lat="14.517110">
                <ele>20.320000</ele>
                <time>2014-11-02T03:25:01Z</time>
            </trkpt>
            <trkpt lon="100.970825" lat="14.517084">
                <ele>20.810000</ele>
                <time>2014-11-02T03:25:02Z</time>
            </trkpt>
            <trkpt lon="100.970840" lat="14.517067">
                <ele>20.320000</ele>
                <time>2014-11-02T03:25:03Z</time>
            </trkpt>
            <trkpt lon="100.970857" lat="14.517049">
                <ele>20.320000</ele>
                <time>2014-11-02T03:25:04Z</time>
            </trkpt>
            <trkpt lon="100.970874" lat="14.517033">
                <ele>20.810000</ele>
                <time>2014-11-02T03:25:05Z</time>
            </trkpt>
            <trkpt lon="100.970893" lat="14.517020">
                <ele>20.810000</ele>
                <time>2014-11-02T03:25:06Z</time>
            </trkpt>
            <trkpt lon="100.970913" lat="14.517009">
                <ele>20.810000</ele>
                <time>2014-11-02T03:25:07Z</time>
            </trkpt>
            <trkpt lon="100.970931" lat="14.516992">
                <ele>20.810000</ele>
                <time>2014-11-02T03:25:08Z</time>
            </trkpt>
            <trkpt lon="100.970950" lat="14.516976">
                <ele>20.810000</ele>
                <time>2014-11-02T03:25:09Z</time>
            </trkpt>
            <trkpt lon="100.971136" lat="14.516840">
                <ele>20.810000</ele>
                <time>2014-11-02T03:25:18Z</time>
            </trkpt>
            <trkpt lon="100.971148" lat="14.516819">
                <ele>20.810000</ele>
                <time>2014-11-02T03:25:19Z</time>
            </trkpt>
            <trkpt lon="100.971156" lat="14.516795">
                <ele>20.810000</ele>
                <time>2014-11-02T03:25:20Z</time>
            </trkpt>
            <trkpt lon="100.971168" lat="14.516770">
                <ele>20.810000</ele>
                <time>2014-11-02T03:25:21Z</time>
            </trkpt>
            <trkpt lon="100.971187" lat="14.516750">
                <ele>20.320000</ele>
                <time>2014-11-02T03:25:22Z</time>
            </trkpt>
            <trkpt lon="100.971206" lat="14.516730">
                <ele>21.290000</ele>
                <time>2014-11-02T03:25:23Z</time>
            </trkpt>
            <trkpt lon="100.971217" lat="14.516711">
                <ele>19.840000</ele>
                <time>2014-11-02T03:25:24Z</time>
            </trkpt>
            <trkpt lon="100.971219" lat="14.516696">
                <ele>20.320000</ele>
                <time>2014-11-02T03:25:25Z</time>
            </trkpt>
            <trkpt lon="100.971212" lat="14.516684">
                <ele>20.810000</ele>
                <time>2014-11-02T03:25:26Z</time>
            </trkpt>
            <trkpt lon="100.971196" lat="14.516671">
                <ele>20.320000</ele>
                <time>2014-11-02T03:25:27Z</time>
            </trkpt>
            <trkpt lon="100.971086" lat="14.516566">
                <ele>20.810000</ele>
                <time>2014-11-02T03:25:38Z</time>
            </trkpt>
            <trkpt lon="100.971038" lat="14.516507">
                <ele>21.290000</ele>
                <time>2014-11-02T03:25:50Z</time>
            </trkpt>
            <trkpt lon="100.971034" lat="14.516495">
                <ele>20.320000</ele>
                <time>2014-11-02T03:25:51Z</time>
            </trkpt>
            <trkpt lon="100.971020" lat="14.516475">
                <ele>20.810000</ele>
                <time>2014-11-02T03:25:54Z</time>
            </trkpt>
            <trkpt lon="100.971009" lat="14.516460">
                <ele>21.290000</ele>
                <time>2014-11-02T03:25:55Z</time>
            </trkpt>
            <trkpt lon="100.970992" lat="14.516443">
                <ele>20.810000</ele>
                <time>2014-11-02T03:25:56Z</time>
            </trkpt>
            <trkpt lon="100.970707" lat="14.516066">
                <ele>20.810000</ele>
                <time>2014-11-02T03:26:10Z</time>
            </trkpt>
            <trkpt lon="100.970710" lat="14.516042">
                <ele>21.290000</ele>
                <time>2014-11-02T03:26:11Z</time>
            </trkpt>
            <trkpt lon="100.970717" lat="14.516025">
                <ele>21.290000</ele>
                <time>2014-11-02T03:26:12Z</time>
            </trkpt>
            <trkpt lon="100.970768" lat="14.515958">
                <ele>20.810000</ele>
                <time>2014-11-02T03:26:25Z</time>
            </trkpt>
            <trkpt lon="100.970818" lat="14.515931">
                <ele>20.320000</ele>
                <time>2014-11-02T03:26:31Z</time>
            </trkpt>
            <trkpt lon="100.970847" lat="14.515913">
                <ele>20.810000</ele>
                <time>2014-11-02T03:26:35Z</time>
            </trkpt>
            <trkpt lon="100.970861" lat="14.515905">
                <ele>20.810000</ele>
                <time>2014-11-02T03:26:36Z</time>
            </trkpt>
            <trkpt lon="100.970878" lat="14.515894">
                <ele>21.290000</ele>
                <time>2014-11-02T03:26:37Z</time>
            </trkpt>
            <trkpt lon="100.970898" lat="14.515881">
                <ele>20.810000</ele>
                <time>2014-11-02T03:26:38Z</time>
            </trkpt>
            <trkpt lon="100.970918" lat="14.515866">
                <ele>21.290000</ele>
                <time>2014-11-02T03:26:39Z</time>
            </trkpt>
            <trkpt lon="100.970940" lat="14.515852">
                <ele>21.770000</ele>
                <time>2014-11-02T03:26:40Z</time>
            </trkpt>
            <trkpt lon="100.970965" lat="14.515836">
                <ele>21.290000</ele>
                <time>2014-11-02T03:26:41Z</time>
            </trkpt>
            <trkpt lon="100.970990" lat="14.515815">
                <ele>21.290000</ele>
                <time>2014-11-02T03:26:42Z</time>
            </trkpt>
            <trkpt lon="100.971297" lat="14.515614">
                <ele>20.810000</ele>
                <time>2014-11-02T03:26:54Z</time>
            </trkpt>
            <trkpt lon="100.971300" lat="14.515591">
                <ele>20.810000</ele>
                <time>2014-11-02T03:26:55Z</time>
            </trkpt>
            <trkpt lon="100.971162" lat="14.515318">
                <ele>21.290000</ele>
                <time>2014-11-02T03:27:05Z</time>
            </trkpt>
            <trkpt lon="100.970931" lat="14.515030">
                <ele>21.770000</ele>
                <time>2014-11-02T03:27:18Z</time>
            </trkpt>
            <trkpt lon="100.970718" lat="14.514703">
                <ele>22.250000</ele>
                <time>2014-11-02T03:27:30Z</time>
            </trkpt>
            <trkpt lon="100.970722" lat="14.514672">
                <ele>21.770000</ele>
                <time>2014-11-02T03:27:31Z</time>
            </trkpt>
            <trkpt lon="100.970744" lat="14.514649">
                <ele>21.770000</ele>
                <time>2014-11-02T03:27:32Z</time>
            </trkpt>
            <trkpt lon="100.970774" lat="14.514635">
                <ele>21.770000</ele>
                <time>2014-11-02T03:27:33Z</time>
            </trkpt>
            <trkpt lon="100.970808" lat="14.514624">
                <ele>21.770000</ele>
                <time>2014-11-02T03:27:34Z</time>
            </trkpt>
            <trkpt lon="100.971099" lat="14.514509">
                <ele>21.770000</ele>
                <time>2014-11-02T03:27:45Z</time>
            </trkpt>
            <trkpt lon="100.971201" lat="14.514466">
                <ele>21.770000</ele>
                <time>2014-11-02T03:27:58Z</time>
            </trkpt>
            <trkpt lon="100.971202" lat="14.514451">
                <ele>21.290000</ele>
                <time>2014-11-02T03:28:26Z</time>
            </trkpt>
            <trkpt lon="100.971213" lat="14.514461">
                <ele>21.770000</ele>
                <time>2014-11-02T03:28:45Z</time>
            </trkpt>
            <trkpt lon="100.971243" lat="14.514454">
                <ele>21.290000</ele>
                <time>2014-11-02T03:29:05Z</time>
            </trkpt>
            <trkpt lon="100.971265" lat="14.514438">
                <ele>21.290000</ele>
                <time>2014-11-02T03:29:08Z</time>
            </trkpt>
            <trkpt lon="100.971280" lat="14.514428">
                <ele>21.770000</ele>
                <time>2014-11-02T03:29:09Z</time>
            </trkpt>
            <trkpt lon="100.971531" lat="14.514329">
                <ele>21.770000</ele>
                <time>2014-11-02T03:29:24Z</time>
            </trkpt>
            <trkpt lon="100.971824" lat="14.514164">
                <ele>22.730000</ele>
                <time>2014-11-02T03:29:36Z</time>
            </trkpt>
            <trkpt lon="100.971989" lat="14.514092">
                <ele>22.250000</ele>
                <time>2014-11-02T03:29:49Z</time>
            </trkpt>
            <trkpt lon="100.972119" lat="14.514022">
                <ele>22.250000</ele>
                <time>2014-11-02T03:30:00Z</time>
            </trkpt>
            <trkpt lon="100.972163" lat="14.514012">
                <ele>21.770000</ele>
                <time>2014-11-02T03:30:06Z</time>
            </trkpt>
            <trkpt lon="100.972414" lat="14.513953">
                <ele>22.730000</ele>
                <time>2014-11-02T03:30:22Z</time>
            </trkpt>
            <trkpt lon="100.972455" lat="14.513955">
                <ele>22.730000</ele>
                <time>2014-11-02T03:30:33Z</time>
            </trkpt>
            <trkpt lon="100.972477" lat="14.513955">
                <ele>22.730000</ele>
                <time>2014-11-02T03:30:51Z</time>
            </trkpt>
            <trkpt lon="100.972487" lat="14.513947">
                <ele>23.210000</ele>
                <time>2014-11-02T03:30:55Z</time>
            </trkpt>
            <trkpt lon="100.972479" lat="14.513879">
                <ele>23.210000</ele>
                <time>2014-11-02T03:31:03Z</time>
            </trkpt>
            <trkpt lon="100.972397" lat="14.513760">
                <ele>22.730000</ele>
                <time>2014-11-02T03:31:18Z</time>
            </trkpt>
            <trkpt lon="100.972285" lat="14.513517">
                <ele>23.690000</ele>
                <time>2014-11-02T03:31:29Z</time>
            </trkpt>
            <trkpt lon="100.972142" lat="14.512894">
                <ele>24.170000</ele>
                <time>2014-11-02T03:31:46Z</time>
            </trkpt>
            <trkpt lon="100.971808" lat="14.512373">
                <ele>24.650000</ele>
                <time>2014-11-02T03:32:01Z</time>
            </trkpt>
            <trkpt lon="100.971739" lat="14.512313">
                <ele>24.170000</ele>
                <time>2014-11-02T03:32:03Z</time>
            </trkpt>
            <trkpt lon="100.970916" lat="14.511955">
                <ele>23.690000</ele>
                <time>2014-11-02T03:32:21Z</time>
            </trkpt>
            <trkpt lon="100.970092" lat="14.511642">
                <ele>24.650000</ele>
                <time>2014-11-02T03:32:38Z</time>
            </trkpt>
            <trkpt lon="100.969831" lat="14.511366">
                <ele>24.650000</ele>
                <time>2014-11-02T03:32:46Z</time>
            </trkpt>
            <trkpt lon="100.969690" lat="14.511238">
                <ele>24.650000</ele>
                <time>2014-11-02T03:32:51Z</time>
            </trkpt>
            <trkpt lon="100.969686" lat="14.511215">
                <ele>24.170000</ele>
                <time>2014-11-02T03:32:52Z</time>
            </trkpt>
            <trkpt lon="100.969695" lat="14.511188">
                <ele>25.130000</ele>
                <time>2014-11-02T03:32:53Z</time>
            </trkpt>
            <trkpt lon="100.969713" lat="14.511161">
                <ele>24.650000</ele>
                <time>2014-11-02T03:32:54Z</time>
            </trkpt>
            <trkpt lon="100.969740" lat="14.511137">
                <ele>24.650000</ele>
                <time>2014-11-02T03:32:55Z</time>
            </trkpt>
            <trkpt lon="100.969772" lat="14.511118">
                <ele>25.130000</ele>
                <time>2014-11-02T03:32:56Z</time>
            </trkpt>
            <trkpt lon="100.970253" lat="14.510803">
                <ele>24.650000</ele>
                <time>2014-11-02T03:33:09Z</time>
            </trkpt>
            <trkpt lon="100.970381" lat="14.510726">
                <ele>25.130000</ele>
                <time>2014-11-02T03:33:12Z</time>
            </trkpt>
            <trkpt lon="100.971305" lat="14.510208">
                <ele>24.650000</ele>
                <time>2014-11-02T03:33:32Z</time>
            </trkpt>
            <trkpt lon="100.972168" lat="14.509832">
                <ele>25.610000</ele>
                <time>2014-11-02T03:33:51Z</time>
            </trkpt>
            <trkpt lon="100.972340" lat="14.509720">
                <ele>26.090000</ele>
                <time>2014-11-02T03:33:56Z</time>
            </trkpt>
            <trkpt lon="100.972301" lat="14.509572">
                <ele>26.570000</ele>
                <time>2014-11-02T03:34:00Z</time>
            </trkpt>
            <trkpt lon="100.972092" lat="14.508845">
                <ele>27.530000</ele>
                <time>2014-11-02T03:34:17Z</time>
            </trkpt>
            <trkpt lon="100.971887" lat="14.508389">
                <ele>26.090000</ele>
                <time>2014-11-02T03:34:27Z</time>
            </trkpt>
            <trkpt lon="100.971961" lat="14.508166">
                <ele>23.690000</ele>
                <time>2014-11-02T03:34:33Z</time>
            </trkpt>
            <trkpt lon="100.971997" lat="14.508142">
                <ele>23.690000</ele>
                <time>2014-11-02T03:34:34Z</time>
            </trkpt>
            <trkpt lon="100.972077" lat="14.508092">
                <ele>24.170000</ele>
                <time>2014-11-02T03:34:36Z</time>
            </trkpt>
            <trkpt lon="100.972202" lat="14.508039">
                <ele>24.170000</ele>
                <time>2014-11-02T03:34:39Z</time>
            </trkpt>
            <trkpt lon="100.972332" lat="14.508127">
                <ele>24.170000</ele>
                <time>2014-11-02T03:34:44Z</time>
            </trkpt>
            <trkpt lon="100.972439" lat="14.508777">
                <ele>27.050000</ele>
                <time>2014-11-02T03:35:00Z</time>
            </trkpt>
            <trkpt lon="100.972683" lat="14.509632">
                <ele>26.570000</ele>
                <time>2014-11-02T03:35:20Z</time>
            </trkpt>
            <trkpt lon="100.972719" lat="14.509646">
                <ele>26.570000</ele>
                <time>2014-11-02T03:35:21Z</time>
            </trkpt>
            <trkpt lon="100.972767" lat="14.509635">
                <ele>26.090000</ele>
                <time>2014-11-02T03:35:22Z</time>
            </trkpt>
            <trkpt lon="100.972819" lat="14.509610">
                <ele>26.570000</ele>
                <time>2014-11-02T03:35:23Z</time>
            </trkpt>
            <trkpt lon="100.972874" lat="14.509581">
                <ele>26.570000</ele>
                <time>2014-11-02T03:35:24Z</time>
            </trkpt>
            <trkpt lon="100.973542" lat="14.509300">
                <ele>26.570000</ele>
                <time>2014-11-02T03:35:37Z</time>
            </trkpt>
            <trkpt lon="100.973588" lat="14.509285">
                <ele>26.570000</ele>
                <time>2014-11-02T03:35:38Z</time>
            </trkpt>
            <trkpt lon="100.973630" lat="14.509286">
                <ele>26.570000</ele>
                <time>2014-11-02T03:35:39Z</time>
            </trkpt>
            <trkpt lon="100.973662" lat="14.509304">
                <ele>26.090000</ele>
                <time>2014-11-02T03:35:40Z</time>
            </trkpt>
            <trkpt lon="100.973716" lat="14.509363">
                <ele>26.570000</ele>
                <time>2014-11-02T03:35:42Z</time>
            </trkpt>
            <trkpt lon="100.974117" lat="14.509863">
                <ele>26.570000</ele>
                <time>2014-11-02T03:35:55Z</time>
            </trkpt>
            <trkpt lon="100.974212" lat="14.509972">
                <ele>25.610000</ele>
                <time>2014-11-02T03:35:58Z</time>
            </trkpt>
            <trkpt lon="100.974541" lat="14.509990">
                <ele>26.090000</ele>
                <time>2014-11-02T03:36:07Z</time>
            </trkpt>
            <trkpt lon="100.974642" lat="14.509881">
                <ele>25.610000</ele>
                <time>2014-11-02T03:36:15Z</time>
            </trkpt>
            <trkpt lon="100.974643" lat="14.509877">
                <ele>24.170000</ele>
                <time>2014-11-02T03:36:20Z</time>
            </trkpt>
            <trkpt lon="100.974667" lat="14.509918">
                <ele>25.130000</ele>
                <time>2014-11-02T03:36:34Z</time>
            </trkpt>
            <trkpt lon="100.974604" lat="14.510024">
                <ele>25.610000</ele>
                <time>2014-11-02T03:36:39Z</time>
            </trkpt>
            <trkpt lon="100.974550" lat="14.510037">
                <ele>25.610000</ele>
                <time>2014-11-02T03:36:41Z</time>
            </trkpt>
            <trkpt lon="100.974332" lat="14.510079">
                <ele>25.610000</ele>
                <time>2014-11-02T03:36:50Z</time>
            </trkpt>
            <trkpt lon="100.974286" lat="14.510063">
                <ele>25.610000</ele>
                <time>2014-11-02T03:36:53Z</time>
            </trkpt>
            <trkpt lon="100.974415" lat="14.509839">
                <ele>25.130000</ele>
                <time>2014-11-02T03:37:05Z</time>
            </trkpt>
            <trkpt lon="100.974788" lat="14.509601">
                <ele>25.610000</ele>
                <time>2014-11-02T03:37:21Z</time>
            </trkpt>
            <trkpt lon="100.974837" lat="14.509609">
                <ele>25.130000</ele>
                <time>2014-11-02T03:37:24Z</time>
            </trkpt>
            <trkpt lon="100.974918" lat="14.509688">
                <ele>25.130000</ele>
                <time>2014-11-02T03:37:30Z</time>
            </trkpt>
            <trkpt lon="100.975145" lat="14.510034">
                <ele>25.610000</ele>
                <time>2014-11-02T03:37:46Z</time>
            </trkpt>
            <trkpt lon="100.975249" lat="14.510131">
                <ele>25.610000</ele>
                <time>2014-11-02T03:37:51Z</time>
            </trkpt>
            <trkpt lon="100.975319" lat="14.510476">
                <ele>25.130000</ele>
                <time>2014-11-02T03:38:03Z</time>
            </trkpt>
            <trkpt lon="100.975372" lat="14.510687">
                <ele>25.130000</ele>
                <time>2014-11-02T03:38:15Z</time>
            </trkpt>
            <trkpt lon="100.975380" lat="14.510708">
                <ele>24.650000</ele>
                <time>2014-11-02T03:38:28Z</time>
            </trkpt>
            <trkpt lon="100.975382" lat="14.510725">
                <ele>25.130000</ele>
                <time>2014-11-02T03:38:41Z</time>
            </trkpt>
            <trkpt lon="100.975383" lat="14.510778">
                <ele>24.650000</ele>
                <time>2014-11-02T03:38:49Z</time>
            </trkpt>
            <trkpt lon="100.975401" lat="14.510999">
                <ele>25.130000</ele>
                <time>2014-11-02T03:38:57Z</time>
            </trkpt>
            <trkpt lon="100.975412" lat="14.511143">
                <ele>25.130000</ele>
                <time>2014-11-02T03:39:02Z</time>
            </trkpt>
            <trkpt lon="100.975489" lat="14.511168">
                <ele>25.130000</ele>
                <time>2014-11-02T03:39:06Z</time>
            </trkpt>
            <trkpt lon="100.975877" lat="14.511082">
                <ele>26.090000</ele>
                <time>2014-11-02T03:39:18Z</time>
            </trkpt>
            <trkpt lon="100.976318" lat="14.510909">
                <ele>26.090000</ele>
                <time>2014-11-02T03:39:31Z</time>
            </trkpt>
            <trkpt lon="100.976683" lat="14.510781">
                <ele>25.610000</ele>
                <time>2014-11-02T03:39:43Z</time>
            </trkpt>
            <trkpt lon="100.977058" lat="14.510659">
                <ele>25.130000</ele>
                <time>2014-11-02T03:39:54Z</time>
            </trkpt>
            <trkpt lon="100.977426" lat="14.510511">
                <ele>25.610000</ele>
                <time>2014-11-02T03:40:07Z</time>
            </trkpt>
            <trkpt lon="100.977575" lat="14.510509">
                <ele>25.610000</ele>
                <time>2014-11-02T03:40:21Z</time>
            </trkpt>
            <trkpt lon="100.977685" lat="14.510493">
                <ele>26.090000</ele>
                <time>2014-11-02T03:40:35Z</time>
            </trkpt>
            <trkpt lon="100.977753" lat="14.510495">
                <ele>26.090000</ele>
                <time>2014-11-02T03:40:49Z</time>
            </trkpt>
            <trkpt lon="100.977754" lat="14.510501">
                <ele>25.610000</ele>
                <time>2014-11-02T03:41:01Z</time>
            </trkpt>
            <trkpt lon="100.977799" lat="14.510493">
                <ele>26.090000</ele>
                <time>2014-11-02T03:41:20Z</time>
            </trkpt>
            <trkpt lon="100.977835" lat="14.510465">
                <ele>26.090000</ele>
                <time>2014-11-02T03:41:30Z</time>
            </trkpt>
            <trkpt lon="100.978013" lat="14.510381">
                <ele>26.570000</ele>
                <time>2014-11-02T03:41:42Z</time>
            </trkpt>
            <trkpt lon="100.978150" lat="14.510333">
                <ele>26.570000</ele>
                <time>2014-11-02T03:41:55Z</time>
            </trkpt>
            <trkpt lon="100.978249" lat="14.510313">
                <ele>26.570000</ele>
                <time>2014-11-02T03:42:07Z</time>
            </trkpt>
            <trkpt lon="100.978320" lat="14.510267">
                <ele>26.570000</ele>
                <time>2014-11-02T03:42:22Z</time>
            </trkpt>
            <trkpt lon="100.978438" lat="14.510252">
                <ele>26.570000</ele>
                <time>2014-11-02T03:42:36Z</time>
            </trkpt>
            <trkpt lon="100.978553" lat="14.510186">
                <ele>26.570000</ele>
                <time>2014-11-02T03:42:45Z</time>
            </trkpt>
            <trkpt lon="100.978734" lat="14.510125">
                <ele>27.050000</ele>
                <time>2014-11-02T03:42:59Z</time>
            </trkpt>
            <trkpt lon="100.978796" lat="14.510084">
                <ele>27.530000</ele>
                <time>2014-11-02T03:43:11Z</time>
            </trkpt>
            <trkpt lon="100.978936" lat="14.510019">
                <ele>27.050000</ele>
                <time>2014-11-02T03:43:27Z</time>
            </trkpt>
            <trkpt lon="100.978995" lat="14.510007">
                <ele>27.050000</ele>
                <time>2014-11-02T03:43:44Z</time>
            </trkpt>
            <trkpt lon="100.979121" lat="14.509959">
                <ele>26.570000</ele>
                <time>2014-11-02T03:43:57Z</time>
            </trkpt>
            <trkpt lon="100.979265" lat="14.509902">
                <ele>27.530000</ele>
                <time>2014-11-02T03:44:14Z</time>
            </trkpt>
            <trkpt lon="100.979373" lat="14.509865">
                <ele>27.530000</ele>
                <time>2014-11-02T03:44:26Z</time>
            </trkpt>
            <trkpt lon="100.979450" lat="14.509829">
                <ele>28.020000</ele>
                <time>2014-11-02T03:44:39Z</time>
            </trkpt>
            <trkpt lon="100.979455" lat="14.509800">
                <ele>28.500000</ele>
                <time>2014-11-02T03:44:42Z</time>
            </trkpt>
            <trkpt lon="100.979434" lat="14.509707">
                <ele>28.500000</ele>
                <time>2014-11-02T03:44:48Z</time>
            </trkpt>
            <trkpt lon="100.979428" lat="14.509686">
                <ele>28.500000</ele>
                <time>2014-11-02T03:44:49Z</time>
            </trkpt>
            <trkpt lon="100.979424" lat="14.509662">
                <ele>28.020000</ele>
                <time>2014-11-02T03:44:50Z</time>
            </trkpt>
            <trkpt lon="100.979414" lat="14.509637">
                <ele>28.020000</ele>
                <time>2014-11-02T03:44:51Z</time>
            </trkpt>
            <trkpt lon="100.979408" lat="14.509616">
                <ele>28.020000</ele>
                <time>2014-11-02T03:44:52Z</time>
            </trkpt>
            <trkpt lon="100.979403" lat="14.509595">
                <ele>28.500000</ele>
                <time>2014-11-02T03:44:53Z</time>
            </trkpt>
            <trkpt lon="100.979396" lat="14.509575">
                <ele>28.500000</ele>
                <time>2014-11-02T03:44:54Z</time>
            </trkpt>
            <trkpt lon="100.979391" lat="14.509556">
                <ele>28.500000</ele>
                <time>2014-11-02T03:44:55Z</time>
            </trkpt>
            <trkpt lon="100.979383" lat="14.509535">
                <ele>28.500000</ele>
                <time>2014-11-02T03:44:56Z</time>
            </trkpt>
            <trkpt lon="100.979374" lat="14.509515">
                <ele>28.500000</ele>
                <time>2014-11-02T03:44:57Z</time>
            </trkpt>
            <trkpt lon="100.979256" lat="14.509275">
                <ele>28.500000</ele>
                <time>2014-11-02T03:45:10Z</time>
            </trkpt>
            <trkpt lon="100.979234" lat="14.509228">
                <ele>28.980000</ele>
                <time>2014-11-02T03:45:14Z</time>
            </trkpt>
            <trkpt lon="100.979232" lat="14.509214">
                <ele>28.980000</ele>
                <time>2014-11-02T03:45:15Z</time>
            </trkpt>
            <trkpt lon="100.979227" lat="14.509195">
                <ele>28.500000</ele>
                <time>2014-11-02T03:45:16Z</time>
            </trkpt>
            <trkpt lon="100.979217" lat="14.509175">
                <ele>28.980000</ele>
                <time>2014-11-02T03:45:17Z</time>
            </trkpt>
            <trkpt lon="100.979207" lat="14.509155">
                <ele>28.980000</ele>
                <time>2014-11-02T03:45:18Z</time>
            </trkpt>
            <trkpt lon="100.979196" lat="14.509132">
                <ele>28.980000</ele>
                <time>2014-11-02T03:45:19Z</time>
            </trkpt>
            <trkpt lon="100.979049" lat="14.508842">
                <ele>28.500000</ele>
                <time>2014-11-02T03:45:32Z</time>
            </trkpt>
            <trkpt lon="100.978936" lat="14.508621">
                <ele>28.500000</ele>
                <time>2014-11-02T03:45:43Z</time>
            </trkpt>
            <trkpt lon="100.978766" lat="14.508297">
                <ele>28.500000</ele>
                <time>2014-11-02T03:45:56Z</time>
            </trkpt>
            <trkpt lon="100.978679" lat="14.508131">
                <ele>29.460000</ele>
                <time>2014-11-02T03:46:08Z</time>
            </trkpt>
            <trkpt lon="100.978626" lat="14.508036">
                <ele>29.460000</ele>
                <time>2014-11-02T03:46:20Z</time>
            </trkpt>
            <trkpt lon="100.978658" lat="14.507929">
                <ele>29.460000</ele>
                <time>2014-11-02T03:46:32Z</time>
            </trkpt>
            <trkpt lon="100.978657" lat="14.507913">
                <ele>29.460000</ele>
                <time>2014-11-02T03:46:33Z</time>
            </trkpt>
            <trkpt lon="100.978662" lat="14.507894">
                <ele>29.940000</ele>
                <time>2014-11-02T03:46:34Z</time>
            </trkpt>
            <trkpt lon="100.978672" lat="14.507877">
                <ele>29.460000</ele>
                <time>2014-11-02T03:46:35Z</time>
            </trkpt>
            <trkpt lon="100.978689" lat="14.507858">
                <ele>29.940000</ele>
                <time>2014-11-02T03:46:36Z</time>
            </trkpt>
            <trkpt lon="100.978717" lat="14.507844">
                <ele>29.460000</ele>
                <time>2014-11-02T03:46:37Z</time>
            </trkpt>
            <trkpt lon="100.978748" lat="14.507834">
                <ele>28.980000</ele>
                <time>2014-11-02T03:46:38Z</time>
            </trkpt>
            <trkpt lon="100.979298" lat="14.507716">
                <ele>30.420000</ele>
                <time>2014-11-02T03:46:52Z</time>
            </trkpt>
            <trkpt lon="100.980006" lat="14.507496">
                <ele>30.900000</ele>
                <time>2014-11-02T03:47:09Z</time>
            </trkpt>
            <trkpt lon="100.980638" lat="14.507257">
                <ele>30.900000</ele>
                <time>2014-11-02T03:47:24Z</time>
            </trkpt>
            <trkpt lon="100.981454" lat="14.506955">
                <ele>30.420000</ele>
                <time>2014-11-02T03:47:42Z</time>
            </trkpt>
            <trkpt lon="100.982238" lat="14.506733">
                <ele>30.900000</ele>
                <time>2014-11-02T03:47:58Z</time>
            </trkpt>
            <trkpt lon="100.982728" lat="14.506640">
                <ele>30.900000</ele>
                <time>2014-11-02T03:48:08Z</time>
            </trkpt>
            <trkpt lon="100.982860" lat="14.506580">
                <ele>30.900000</ele>
                <time>2014-11-02T03:48:11Z</time>
            </trkpt>
            <trkpt lon="100.982902" lat="14.506553">
                <ele>31.380000</ele>
                <time>2014-11-02T03:48:12Z</time>
            </trkpt>
            <trkpt lon="100.983677" lat="14.506002">
                <ele>31.380000</ele>
                <time>2014-11-02T03:48:31Z</time>
            </trkpt>
            <trkpt lon="100.984279" lat="14.505555">
                <ele>30.420000</ele>
                <time>2014-11-02T03:48:49Z</time>
            </trkpt>
            <trkpt lon="100.984607" lat="14.505325">
                <ele>31.380000</ele>
                <time>2014-11-02T03:49:00Z</time>
            </trkpt>
            <trkpt lon="100.985251" lat="14.504870">
                <ele>31.380000</ele>
                <time>2014-11-02T03:49:16Z</time>
            </trkpt>
            <trkpt lon="100.985299" lat="14.504845">
                <ele>32.340000</ele>
                <time>2014-11-02T03:49:17Z</time>
            </trkpt>
            <trkpt lon="100.986348" lat="14.504512">
                <ele>31.860000</ele>
                <time>2014-11-02T03:49:37Z</time>
            </trkpt>
            <trkpt lon="100.987545" lat="14.504241">
                <ele>32.340000</ele>
                <time>2014-11-02T03:49:59Z</time>
            </trkpt>
            <trkpt lon="100.988280" lat="14.503960">
                <ele>32.820000</ele>
                <time>2014-11-02T03:50:13Z</time>
            </trkpt>
            <trkpt lon="100.988753" lat="14.503910">
                <ele>32.820000</ele>
                <time>2014-11-02T03:50:21Z</time>
            </trkpt>
            <trkpt lon="100.988813" lat="14.503917">
                <ele>32.820000</ele>
                <time>2014-11-02T03:50:22Z</time>
            </trkpt>
            <trkpt lon="100.988870" lat="14.503930">
                <ele>32.340000</ele>
                <time>2014-11-02T03:50:23Z</time>
            </trkpt>
            <trkpt lon="100.989669" lat="14.504020">
                <ele>32.340000</ele>
                <time>2014-11-02T03:50:37Z</time>
            </trkpt>
            <trkpt lon="100.990427" lat="14.504186">
                <ele>32.820000</ele>
                <time>2014-11-02T03:50:51Z</time>
            </trkpt>
            <trkpt lon="100.990726" lat="14.504264">
                <ele>33.780000</ele>
                <time>2014-11-02T03:50:58Z</time>
            </trkpt>
            <trkpt lon="100.990739" lat="14.504294">
                <ele>33.780000</ele>
                <time>2014-11-02T03:50:59Z</time>
            </trkpt>
            <trkpt lon="100.990736" lat="14.504321">
                <ele>33.780000</ele>
                <time>2014-11-02T03:51:00Z</time>
            </trkpt>
            <trkpt lon="100.990723" lat="14.504351">
                <ele>34.260000</ele>
                <time>2014-11-02T03:51:01Z</time>
            </trkpt>
            <trkpt lon="100.990706" lat="14.504382">
                <ele>34.260000</ele>
                <time>2014-11-02T03:51:02Z</time>
            </trkpt>
            <trkpt lon="100.990690" lat="14.504416">
                <ele>34.260000</ele>
                <time>2014-11-02T03:51:03Z</time>
            </trkpt>
            <trkpt lon="100.990674" lat="14.504450">
                <ele>34.260000</ele>
                <time>2014-11-02T03:51:04Z</time>
            </trkpt>
            <trkpt lon="100.990560" lat="14.504923">
                <ele>33.300000</ele>
                <time>2014-11-02T03:51:18Z</time>
            </trkpt>
            <trkpt lon="100.990551" lat="14.505381">
                <ele>33.300000</ele>
                <time>2014-11-02T03:51:31Z</time>
            </trkpt>
            <trkpt lon="100.990644" lat="14.506055">
                <ele>34.260000</ele>
                <time>2014-11-02T03:51:48Z</time>
            </trkpt>
            <trkpt lon="100.990854" lat="14.506481">
                <ele>35.230000</ele>
                <time>2014-11-02T03:52:02Z</time>
            </trkpt>
            <trkpt lon="100.991115" lat="14.506970">
                <ele>35.710000</ele>
                <time>2014-11-02T03:52:16Z</time>
            </trkpt>
            <trkpt lon="100.991269" lat="14.507553">
                <ele>34.740000</ele>
                <time>2014-11-02T03:52:31Z</time>
            </trkpt>
            <trkpt lon="100.991431" lat="14.508018">
                <ele>33.300000</ele>
                <time>2014-11-02T03:52:42Z</time>
            </trkpt>
            <trkpt lon="100.991519" lat="14.508193">
                <ele>33.300000</ele>
                <time>2014-11-02T03:52:46Z</time>
            </trkpt>
            <trkpt lon="100.991634" lat="14.508535">
                <ele>32.820000</ele>
                <time>2014-11-02T03:52:55Z</time>
            </trkpt>
            <trkpt lon="100.991635" lat="14.508563">
                <ele>33.300000</ele>
                <time>2014-11-02T03:52:56Z</time>
            </trkpt>
            <trkpt lon="100.991643" lat="14.508590">
                <ele>33.300000</ele>
                <time>2014-11-02T03:52:57Z</time>
            </trkpt>
            <trkpt lon="100.991657" lat="14.508619">
                <ele>32.820000</ele>
                <time>2014-11-02T03:52:58Z</time>
            </trkpt>
            <trkpt lon="100.991853" lat="14.509057">
                <ele>32.820000</ele>
                <time>2014-11-02T03:53:10Z</time>
            </trkpt>
            <trkpt lon="100.991901" lat="14.509099">
                <ele>32.340000</ele>
                <time>2014-11-02T03:53:12Z</time>
            </trkpt>
            <trkpt lon="100.992001" lat="14.509072">
                <ele>32.820000</ele>
                <time>2014-11-02T03:53:15Z</time>
            </trkpt>
            <trkpt lon="100.992163" lat="14.508980">
                <ele>33.300000</ele>
                <time>2014-11-02T03:53:20Z</time>
            </trkpt>
            <trkpt lon="100.992433" lat="14.508878">
                <ele>32.820000</ele>
                <time>2014-11-02T03:53:32Z</time>
            </trkpt>
            <trkpt lon="100.992450" lat="14.508878">
                <ele>32.820000</ele>
                <time>2014-11-02T03:53:33Z</time>
            </trkpt>
            <trkpt lon="100.992469" lat="14.508883">
                <ele>33.300000</ele>
                <time>2014-11-02T03:53:34Z</time>
            </trkpt>
            <trkpt lon="100.992487" lat="14.508888">
                <ele>32.820000</ele>
                <time>2014-11-02T03:53:35Z</time>
            </trkpt>
            <trkpt lon="100.992508" lat="14.508891">
                <ele>32.820000</ele>
                <time>2014-11-02T03:53:36Z</time>
            </trkpt>
            <trkpt lon="100.992534" lat="14.508890">
                <ele>32.820000</ele>
                <time>2014-11-02T03:53:37Z</time>
            </trkpt>
            <trkpt lon="100.992561" lat="14.508887">
                <ele>33.300000</ele>
                <time>2014-11-02T03:53:38Z</time>
            </trkpt>
            <trkpt lon="100.993086" lat="14.508858">
                <ele>33.780000</ele>
                <time>2014-11-02T03:53:51Z</time>
            </trkpt>
            <trkpt lon="100.993592" lat="14.508888">
                <ele>34.260000</ele>
                <time>2014-11-02T03:54:02Z</time>
            </trkpt>
            <trkpt lon="100.993991" lat="14.509053">
                <ele>35.230000</ele>
                <time>2014-11-02T03:54:13Z</time>
            </trkpt>
            <trkpt lon="100.994258" lat="14.509162">
                <ele>34.260000</ele>
                <time>2014-11-02T03:54:23Z</time>
            </trkpt>
            <trkpt lon="100.994269" lat="14.509150">
                <ele>34.260000</ele>
                <time>2014-11-02T03:54:34Z</time>
            </trkpt>
            <trkpt lon="100.994283" lat="14.509147">
                <ele>34.740000</ele>
                <time>2014-11-02T03:54:35Z</time>
            </trkpt>
            <trkpt lon="100.994303" lat="14.509149">
                <ele>34.260000</ele>
                <time>2014-11-02T03:54:36Z</time>
            </trkpt>
            <trkpt lon="100.994813" lat="14.509213">
                <ele>34.740000</ele>
                <time>2014-11-02T03:54:49Z</time>
            </trkpt>
            <trkpt lon="100.995782" lat="14.509356">
                <ele>35.710000</ele>
                <time>2014-11-02T03:55:11Z</time>
            </trkpt>
            <trkpt lon="100.996619" lat="14.509413">
                <ele>37.150000</ele>
                <time>2014-11-02T03:55:31Z</time>
            </trkpt>
            <trkpt lon="100.997362" lat="14.509499">
                <ele>36.670000</ele>
                <time>2014-11-02T03:55:47Z</time>
            </trkpt>
            <trkpt lon="100.998230" lat="14.509564">
                <ele>36.190000</ele>
                <time>2014-11-02T03:56:04Z</time>
            </trkpt>
            <trkpt lon="100.998358" lat="14.509574">
                <ele>35.710000</ele>
                <time>2014-11-02T03:56:07Z</time>
            </trkpt>
            <trkpt lon="100.998371" lat="14.509561">
                <ele>35.710000</ele>
                <time>2014-11-02T03:56:08Z</time>
            </trkpt>
            <trkpt lon="100.998376" lat="14.509521">
                <ele>35.230000</ele>
                <time>2014-11-02T03:56:10Z</time>
            </trkpt>
            <trkpt lon="100.998402" lat="14.509211">
                <ele>36.670000</ele>
                <time>2014-11-02T03:56:26Z</time>
            </trkpt>
            <trkpt lon="100.998491" lat="14.508873">
                <ele>38.110000</ele>
                <time>2014-11-02T03:56:41Z</time>
            </trkpt>
            <trkpt lon="100.998590" lat="14.508519">
                <ele>39.550000</ele>
                <time>2014-11-02T03:56:56Z</time>
            </trkpt>
            <trkpt lon="100.998622" lat="14.508433">
                <ele>40.510000</ele>
                <time>2014-11-02T03:57:00Z</time>
            </trkpt>
            <trkpt lon="100.998868" lat="14.508488">
                <ele>40.510000</ele>
                <time>2014-11-02T03:57:10Z</time>
            </trkpt>
            <trkpt lon="100.999272" lat="14.508460">
                <ele>40.510000</ele>
                <time>2014-11-02T03:57:22Z</time>
            </trkpt>
            <trkpt lon="100.999329" lat="14.508528">
                <ele>40.990000</ele>
                <time>2014-11-02T03:57:25Z</time>
            </trkpt>
            <trkpt lon="100.999579" lat="14.508456">
                <ele>42.440000</ele>
                <time>2014-11-02T03:57:36Z</time>
            </trkpt>
            <trkpt lon="100.999645" lat="14.508432">
                <ele>42.440000</ele>
                <time>2014-11-02T03:57:39Z</time>
            </trkpt>
            <trkpt lon="100.999847" lat="14.508233">
                <ele>44.360000</ele>
                <time>2014-11-02T03:57:52Z</time>
            </trkpt>
            <trkpt lon="100.999985" lat="14.508131">
                <ele>45.320000</ele>
                <time>2014-11-02T03:58:01Z</time>
            </trkpt>
            <trkpt lon="101.000068" lat="14.508041">
                <ele>46.280000</ele>
                <time>2014-11-02T03:58:08Z</time>
            </trkpt>
            <trkpt lon="101.000158" lat="14.507948">
                <ele>46.280000</ele>
                <time>2014-11-02T03:58:15Z</time>
            </trkpt>
            <trkpt lon="101.000206" lat="14.507888">
                <ele>47.240000</ele>
                <time>2014-11-02T03:58:19Z</time>
            </trkpt>
            <trkpt lon="101.000433" lat="14.507669">
                <ele>48.680000</ele>
                <time>2014-11-02T03:58:36Z</time>
            </trkpt>
            <trkpt lon="101.000557" lat="14.507596">
                <ele>50.130000</ele>
                <time>2014-11-02T03:58:46Z</time>
            </trkpt>
            <trkpt lon="101.000723" lat="14.507510">
                <ele>51.570000</ele>
                <time>2014-11-02T03:58:59Z</time>
            </trkpt>
            <trkpt lon="101.001073" lat="14.507690">
                <ele>50.130000</ele>
                <time>2014-11-02T03:59:14Z</time>
            </trkpt>
            <trkpt lon="101.001368" lat="14.507728">
                <ele>48.680000</ele>
                <time>2014-11-02T03:59:23Z</time>
            </trkpt>
            <trkpt lon="101.001760" lat="14.507732">
                <ele>48.680000</ele>
                <time>2014-11-02T03:59:34Z</time>
            </trkpt>
            <trkpt lon="101.002239" lat="14.507776">
                <ele>48.200000</ele>
                <time>2014-11-02T03:59:45Z</time>
            </trkpt>
            <trkpt lon="101.002638" lat="14.507640">
                <ele>49.160000</ele>
                <time>2014-11-02T03:59:56Z</time>
            </trkpt>
            <trkpt lon="101.003226" lat="14.507711">
                <ele>49.160000</ele>
                <time>2014-11-02T04:00:10Z</time>
            </trkpt>
            <trkpt lon="101.003368" lat="14.507734">
                <ele>47.720000</ele>
                <time>2014-11-02T04:00:13Z</time>
            </trkpt>
            <trkpt lon="101.003611" lat="14.507763">
                <ele>47.720000</ele>
                <time>2014-11-02T04:00:18Z</time>
            </trkpt>
            <trkpt lon="101.003957" lat="14.507746">
                <ele>45.800000</ele>
                <time>2014-11-02T04:00:26Z</time>
            </trkpt>
            <trkpt lon="101.004136" lat="14.507531">
                <ele>47.240000</ele>
                <time>2014-11-02T04:00:36Z</time>
            </trkpt>
            <trkpt lon="101.004365" lat="14.507207">
                <ele>47.720000</ele>
                <time>2014-11-02T04:00:49Z</time>
            </trkpt>
            <trkpt lon="101.004546" lat="14.506884">
                <ele>49.650000</ele>
                <time>2014-11-02T04:01:04Z</time>
            </trkpt>
            <trkpt lon="101.004725" lat="14.506612">
                <ele>50.130000</ele>
                <time>2014-11-02T04:01:18Z</time>
            </trkpt>
            <trkpt lon="101.004865" lat="14.506336">
                <ele>50.610000</ele>
                <time>2014-11-02T04:01:31Z</time>
            </trkpt>
            <trkpt lon="101.004991" lat="14.506011">
                <ele>51.570000</ele>
                <time>2014-11-02T04:01:47Z</time>
            </trkpt>
            <trkpt lon="101.005056" lat="14.505866">
                <ele>53.490000</ele>
                <time>2014-11-02T04:01:55Z</time>
            </trkpt>
            <trkpt lon="101.005165" lat="14.505812">
                <ele>54.450000</ele>
                <time>2014-11-02T04:02:01Z</time>
            </trkpt>
            <trkpt lon="101.005532" lat="14.505697">
                <ele>54.930000</ele>
                <time>2014-11-02T04:02:19Z</time>
            </trkpt>
            <trkpt lon="101.005896" lat="14.505555">
                <ele>56.860000</ele>
                <time>2014-11-02T04:02:38Z</time>
            </trkpt>
            <trkpt lon="101.006217" lat="14.505449">
                <ele>56.860000</ele>
                <time>2014-11-02T04:02:52Z</time>
            </trkpt>
            <trkpt lon="101.006694" lat="14.505284">
                <ele>56.370000</ele>
                <time>2014-11-02T04:03:06Z</time>
            </trkpt>
            <trkpt lon="101.007246" lat="14.505091">
                <ele>55.410000</ele>
                <time>2014-11-02T04:03:19Z</time>
            </trkpt>
            <trkpt lon="101.007461" lat="14.505001">
                <ele>54.930000</ele>
                <time>2014-11-02T04:03:24Z</time>
            </trkpt>
            <trkpt lon="101.007778" lat="14.504909">
                <ele>54.450000</ele>
                <time>2014-11-02T04:03:31Z</time>
            </trkpt>
            <trkpt lon="101.007925" lat="14.504827">
                <ele>53.490000</ele>
                <time>2014-11-02T04:03:35Z</time>
            </trkpt>
            <trkpt lon="101.008264" lat="14.504458">
                <ele>54.450000</ele>
                <time>2014-11-02T04:03:49Z</time>
            </trkpt>
            <trkpt lon="101.008403" lat="14.503987">
                <ele>54.450000</ele>
                <time>2014-11-02T04:04:02Z</time>
            </trkpt>
            <trkpt lon="101.008344" lat="14.503485">
                <ele>53.010000</ele>
                <time>2014-11-02T04:04:13Z</time>
            </trkpt>
            <trkpt lon="101.008294" lat="14.503291">
                <ele>53.010000</ele>
                <time>2014-11-02T04:04:17Z</time>
            </trkpt>
            <trkpt lon="101.008282" lat="14.503079">
                <ele>51.090000</ele>
                <time>2014-11-02T04:04:21Z</time>
            </trkpt>
            <trkpt lon="101.008290" lat="14.502855">
                <ele>50.130000</ele>
                <time>2014-11-02T04:04:25Z</time>
            </trkpt>
            <trkpt lon="101.008255" lat="14.502646">
                <ele>49.650000</ele>
                <time>2014-11-02T04:04:29Z</time>
            </trkpt>
            <trkpt lon="101.008254" lat="14.502551">
                <ele>48.680000</ele>
                <time>2014-11-02T04:04:31Z</time>
            </trkpt>
            <trkpt lon="101.008292" lat="14.502300">
                <ele>48.200000</ele>
                <time>2014-11-02T04:04:36Z</time>
            </trkpt>
            <trkpt lon="101.008188" lat="14.502004">
                <ele>47.240000</ele>
                <time>2014-11-02T04:04:43Z</time>
            </trkpt>
            <trkpt lon="101.007988" lat="14.501773">
                <ele>47.720000</ele>
                <time>2014-11-02T04:04:50Z</time>
            </trkpt>
            <trkpt lon="101.007938" lat="14.501595">
                <ele>46.760000</ele>
                <time>2014-11-02T04:04:54Z</time>
            </trkpt>
            <trkpt lon="101.007935" lat="14.501498">
                <ele>46.760000</ele>
                <time>2014-11-02T04:04:56Z</time>
            </trkpt>
            <trkpt lon="101.007946" lat="14.501206">
                <ele>45.800000</ele>
                <time>2014-11-02T04:05:02Z</time>
            </trkpt>
            <trkpt lon="101.007905" lat="14.501035">
                <ele>45.320000</ele>
                <time>2014-11-02T04:05:06Z</time>
            </trkpt>
            <trkpt lon="101.007898" lat="14.500648">
                <ele>43.880000</ele>
                <time>2014-11-02T04:05:16Z</time>
            </trkpt>
            <trkpt lon="101.007870" lat="14.500396">
                <ele>43.400000</ele>
                <time>2014-11-02T04:05:22Z</time>
            </trkpt>
            <trkpt lon="101.007836" lat="14.499898">
                <ele>41.950000</ele>
                <time>2014-11-02T04:05:34Z</time>
            </trkpt>
            <trkpt lon="101.007689" lat="14.499372">
                <ele>40.510000</ele>
                <time>2014-11-02T04:05:48Z</time>
            </trkpt>
            <trkpt lon="101.007667" lat="14.499323">
                <ele>40.510000</ele>
                <time>2014-11-02T04:05:50Z</time>
            </trkpt>
            <trkpt lon="101.007504" lat="14.499269">
                <ele>40.510000</ele>
                <time>2014-11-02T04:05:55Z</time>
            </trkpt>
            <trkpt lon="101.007057" lat="14.499184">
                <ele>40.030000</ele>
                <time>2014-11-02T04:06:07Z</time>
            </trkpt>
            <trkpt lon="101.006792" lat="14.499162">
                <ele>40.990000</ele>
                <time>2014-11-02T04:06:17Z</time>
            </trkpt>
            <trkpt lon="101.006489" lat="14.499167">
                <ele>42.440000</ele>
                <time>2014-11-02T04:06:28Z</time>
            </trkpt>
            <trkpt lon="101.006220" lat="14.499211">
                <ele>43.880000</ele>
                <time>2014-11-02T04:06:40Z</time>
            </trkpt>
            <trkpt lon="101.005839" lat="14.499278">
                <ele>45.800000</ele>
                <time>2014-11-02T04:06:57Z</time>
            </trkpt>
            <trkpt lon="101.005352" lat="14.499278">
                <ele>46.280000</ele>
                <time>2014-11-02T04:07:12Z</time>
            </trkpt>
            <trkpt lon="101.004716" lat="14.499208">
                <ele>43.880000</ele>
                <time>2014-11-02T04:07:26Z</time>
            </trkpt>
            <trkpt lon="101.004269" lat="14.499136">
                <ele>44.840000</ele>
                <time>2014-11-02T04:07:38Z</time>
            </trkpt>
            <trkpt lon="101.003766" lat="14.499011">
                <ele>44.840000</ele>
                <time>2014-11-02T04:07:53Z</time>
            </trkpt>
            <trkpt lon="101.003401" lat="14.499152">
                <ele>43.880000</ele>
                <time>2014-11-02T04:08:04Z</time>
            </trkpt>
            <trkpt lon="101.002940" lat="14.499356">
                <ele>45.320000</ele>
                <time>2014-11-02T04:08:17Z</time>
            </trkpt>
            <trkpt lon="101.002549" lat="14.499520">
                <ele>43.880000</ele>
                <time>2014-11-02T04:08:27Z</time>
            </trkpt>
            <trkpt lon="101.002023" lat="14.499557">
                <ele>43.400000</ele>
                <time>2014-11-02T04:08:40Z</time>
            </trkpt>
            <trkpt lon="101.001865" lat="14.499564">
                <ele>42.920000</ele>
                <time>2014-11-02T04:08:44Z</time>
            </trkpt>
            <trkpt lon="101.001779" lat="14.499572">
                <ele>43.400000</ele>
                <time>2014-11-02T04:08:46Z</time>
            </trkpt>
            <trkpt lon="101.001314" lat="14.499788">
                <ele>43.880000</ele>
                <time>2014-11-02T04:09:00Z</time>
            </trkpt>
            <trkpt lon="101.001076" lat="14.499969">
                <ele>43.880000</ele>
                <time>2014-11-02T04:09:08Z</time>
            </trkpt>
            <trkpt lon="101.000885" lat="14.500004">
                <ele>42.920000</ele>
                <time>2014-11-02T04:09:12Z</time>
            </trkpt>
            <trkpt lon="101.000683" lat="14.500026">
                <ele>42.440000</ele>
                <time>2014-11-02T04:09:16Z</time>
            </trkpt>
            <trkpt lon="101.000299" lat="14.499924">
                <ele>43.880000</ele>
                <time>2014-11-02T04:09:27Z</time>
            </trkpt>
            <trkpt lon="100.999902" lat="14.499750">
                <ele>45.320000</ele>
                <time>2014-11-02T04:09:44Z</time>
            </trkpt>
            <trkpt lon="100.999430" lat="14.499645">
                <ele>44.840000</ele>
                <time>2014-11-02T04:10:00Z</time>
            </trkpt>
            <trkpt lon="100.999168" lat="14.499636">
                <ele>43.880000</ele>
                <time>2014-11-02T04:10:06Z</time>
            </trkpt>
            <trkpt lon="100.999067" lat="14.499641">
                <ele>43.400000</ele>
                <time>2014-11-02T04:10:08Z</time>
            </trkpt>
            <trkpt lon="100.998923" lat="14.499672">
                <ele>43.400000</ele>
                <time>2014-11-02T04:10:11Z</time>
            </trkpt>
            <trkpt lon="100.998521" lat="14.499944">
                <ele>42.440000</ele>
                <time>2014-11-02T04:10:22Z</time>
            </trkpt>
            <trkpt lon="100.998241" lat="14.499794">
                <ele>40.030000</ele>
                <time>2014-11-02T04:10:30Z</time>
            </trkpt>
            <trkpt lon="100.998033" lat="14.499781">
                <ele>39.070000</ele>
                <time>2014-11-02T04:10:34Z</time>
            </trkpt>
            <trkpt lon="100.997483" lat="14.500024">
                <ele>40.030000</ele>
                <time>2014-11-02T04:10:49Z</time>
            </trkpt>
            <trkpt lon="100.997134" lat="14.500205">
                <ele>40.510000</ele>
                <time>2014-11-02T04:11:00Z</time>
            </trkpt>
            <trkpt lon="100.996570" lat="14.500483">
                <ele>40.510000</ele>
                <time>2014-11-02T04:11:16Z</time>
            </trkpt>
            <trkpt lon="100.996490" lat="14.500517">
                <ele>40.510000</ele>
                <time>2014-11-02T04:11:18Z</time>
            </trkpt>
            <trkpt lon="100.995822" lat="14.500707">
                <ele>39.550000</ele>
                <time>2014-11-02T04:11:33Z</time>
            </trkpt>
            <trkpt lon="100.995724" lat="14.500714">
                <ele>39.550000</ele>
                <time>2014-11-02T04:11:35Z</time>
            </trkpt>
            <trkpt lon="100.995362" lat="14.500700">
                <ele>39.070000</ele>
                <time>2014-11-02T04:11:42Z</time>
            </trkpt>
            <trkpt lon="100.994982" lat="14.500819">
                <ele>38.590000</ele>
                <time>2014-11-02T04:11:50Z</time>
            </trkpt>
            <trkpt lon="100.994894" lat="14.500861">
                <ele>38.590000</ele>
                <time>2014-11-02T04:11:52Z</time>
            </trkpt>
            <trkpt lon="100.994463" lat="14.501073">
                <ele>38.590000</ele>
                <time>2014-11-02T04:12:03Z</time>
            </trkpt>
            <trkpt lon="100.994427" lat="14.501013">
                <ele>38.110000</ele>
                <time>2014-11-02T04:12:06Z</time>
            </trkpt>
            <trkpt lon="100.994438" lat="14.500982">
                <ele>38.110000</ele>
                <time>2014-11-02T04:12:07Z</time>
            </trkpt>
            <trkpt lon="100.994451" lat="14.500954">
                <ele>38.110000</ele>
                <time>2014-11-02T04:12:08Z</time>
            </trkpt>
            <trkpt lon="100.994464" lat="14.500924">
                <ele>38.110000</ele>
                <time>2014-11-02T04:12:09Z</time>
            </trkpt>
            <trkpt lon="100.994475" lat="14.500892">
                <ele>38.110000</ele>
                <time>2014-11-02T04:12:10Z</time>
            </trkpt>
            <trkpt lon="100.994617" lat="14.500173">
                <ele>37.630000</ele>
                <time>2014-11-02T04:12:27Z</time>
            </trkpt>
            <trkpt lon="100.994794" lat="14.499164">
                <ele>37.150000</ele>
                <time>2014-11-02T04:12:47Z</time>
            </trkpt>
            <trkpt lon="100.994941" lat="14.498209">
                <ele>37.150000</ele>
                <time>2014-11-02T04:13:06Z</time>
            </trkpt>
            <trkpt lon="100.994937" lat="14.498159">
                <ele>37.150000</ele>
                <time>2014-11-02T04:13:07Z</time>
            </trkpt>
            <trkpt lon="100.994929" lat="14.498108">
                <ele>37.150000</ele>
                <time>2014-11-02T04:13:08Z</time>
            </trkpt>
            <trkpt lon="100.994917" lat="14.498058">
                <ele>37.150000</ele>
                <time>2014-11-02T04:13:09Z</time>
            </trkpt>
            <trkpt lon="100.994630" lat="14.497307">
                <ele>37.630000</ele>
                <time>2014-11-02T04:13:25Z</time>
            </trkpt>
            <trkpt lon="100.994588" lat="14.496612">
                <ele>37.630000</ele>
                <time>2014-11-02T04:13:39Z</time>
            </trkpt>
            <trkpt lon="100.994646" lat="14.496421">
                <ele>37.150000</ele>
                <time>2014-11-02T04:13:48Z</time>
            </trkpt>
            <trkpt lon="100.994656" lat="14.496462">
                <ele>37.630000</ele>
                <time>2014-11-02T04:14:05Z</time>
            </trkpt>
            <trkpt lon="100.994675" lat="14.496494">
                <ele>37.630000</ele>
                <time>2014-11-02T04:14:29Z</time>
            </trkpt>
            <trkpt lon="100.994684" lat="14.496500">
                <ele>37.150000</ele>
                <time>2014-11-02T04:14:50Z</time>
            </trkpt>
            <trkpt lon="100.994677" lat="14.496537">
                <ele>37.150000</ele>
                <time>2014-11-02T04:15:25Z</time>
            </trkpt>
            <trkpt lon="100.994666" lat="14.496505">
                <ele>37.150000</ele>
                <time>2014-11-02T04:15:52Z</time>
            </trkpt>
            <trkpt lon="100.994670" lat="14.496489">
                <ele>37.150000</ele>
                <time>2014-11-02T04:16:18Z</time>
            </trkpt>
            <trkpt lon="100.994672" lat="14.496495">
                <ele>37.150000</ele>
                <time>2014-11-02T04:16:42Z</time>
            </trkpt>
            <trkpt lon="100.994637" lat="14.496364">
                <ele>37.150000</ele>
                <time>2014-11-02T04:16:54Z</time>
            </trkpt>
            <trkpt lon="100.994664" lat="14.496326">
                <ele>37.150000</ele>
                <time>2014-11-02T04:17:09Z</time>
            </trkpt>
            <trkpt lon="100.994666" lat="14.496305">
                <ele>36.190000</ele>
                <time>2014-11-02T04:17:28Z</time>
            </trkpt>
            <trkpt lon="100.994670" lat="14.496293">
                <ele>36.190000</ele>
                <time>2014-11-02T04:17:46Z</time>
            </trkpt>
            <trkpt lon="100.994653" lat="14.496295">
                <ele>36.190000</ele>
                <time>2014-11-02T04:18:12Z</time>
            </trkpt>
            <trkpt lon="100.994658" lat="14.496323">
                <ele>36.670000</ele>
                <time>2014-11-02T04:18:27Z</time>
            </trkpt>
            <trkpt lon="100.994667" lat="14.496407">
                <ele>36.670000</ele>
                <time>2014-11-02T04:18:42Z</time>
            </trkpt>
            <trkpt lon="100.994672" lat="14.496438">
                <ele>36.670000</ele>
                <time>2014-11-02T04:18:59Z</time>
            </trkpt>
            <trkpt lon="100.994672" lat="14.496448">
                <ele>36.670000</ele>
                <time>2014-11-02T04:19:21Z</time>
            </trkpt>
            <trkpt lon="100.994666" lat="14.496451">
                <ele>37.150000</ele>
                <time>2014-11-02T04:19:50Z</time>
            </trkpt>
            <trkpt lon="100.994676" lat="14.496489">
                <ele>36.670000</ele>
                <time>2014-11-02T04:20:08Z</time>
            </trkpt>
            <trkpt lon="100.994705" lat="14.496473">
                <ele>35.710000</ele>
                <time>2014-11-02T04:20:34Z</time>
            </trkpt>
            <trkpt lon="100.994708" lat="14.496449">
                <ele>35.710000</ele>
                <time>2014-11-02T04:20:58Z</time>
            </trkpt>
            <trkpt lon="100.994712" lat="14.496434">
                <ele>35.710000</ele>
                <time>2014-11-02T04:21:15Z</time>
            </trkpt>
            <trkpt lon="100.994685" lat="14.496431">
                <ele>35.710000</ele>
                <time>2014-11-02T04:21:39Z</time>
            </trkpt>
            <trkpt lon="100.994692" lat="14.496448">
                <ele>35.230000</ele>
                <time>2014-11-02T04:22:06Z</time>
            </trkpt>
            <trkpt lon="100.994686" lat="14.496471">
                <ele>36.670000</ele>
                <time>2014-11-02T04:22:16Z</time>
            </trkpt>
            <trkpt lon="100.994691" lat="14.496442">
                <ele>32.820000</ele>
                <time>2014-11-02T04:22:31Z</time>
            </trkpt>
            <trkpt lon="100.994686" lat="14.496440">
                <ele>38.590000</ele>
                <time>2014-11-02T04:22:32Z</time>
            </trkpt>
            <trkpt lon="100.994692" lat="14.496455">
                <ele>34.740000</ele>
                <time>2014-11-02T04:22:35Z</time>
            </trkpt>
            <trkpt lon="100.994695" lat="14.496468">
                <ele>38.110000</ele>
                <time>2014-11-02T04:22:36Z</time>
            </trkpt>
            <trkpt lon="100.994699" lat="14.496485">
                <ele>34.740000</ele>
                <time>2014-11-02T04:22:48Z</time>
            </trkpt>
            <trkpt lon="100.994692" lat="14.496510">
                <ele>35.710000</ele>
                <time>2014-11-02T04:23:05Z</time>
            </trkpt>
            <trkpt lon="100.994666" lat="14.496511">
                <ele>36.190000</ele>
                <time>2014-11-02T04:23:07Z</time>
            </trkpt>
            <trkpt lon="100.994634" lat="14.496459">
                <ele>36.190000</ele>
                <time>2014-11-02T04:23:11Z</time>
            </trkpt>
            <trkpt lon="100.994654" lat="14.495968">
                <ele>36.670000</ele>
                <time>2014-11-02T04:23:27Z</time>
            </trkpt>
            <trkpt lon="100.994632" lat="14.495356">
                <ele>36.670000</ele>
                <time>2014-11-02T04:23:44Z</time>
            </trkpt>
            <trkpt lon="100.994589" lat="14.495266">
                <ele>36.670000</ele>
                <time>2014-11-02T04:23:48Z</time>
            </trkpt>
            <trkpt lon="100.994561" lat="14.495252">
                <ele>36.670000</ele>
                <time>2014-11-02T04:23:49Z</time>
            </trkpt>
            <trkpt lon="100.994526" lat="14.495245">
                <ele>36.670000</ele>
                <time>2014-11-02T04:23:50Z</time>
            </trkpt>
            <trkpt lon="100.994484" lat="14.495242">
                <ele>37.150000</ele>
                <time>2014-11-02T04:23:51Z</time>
            </trkpt>
            <trkpt lon="100.994441" lat="14.495243">
                <ele>36.670000</ele>
                <time>2014-11-02T04:23:52Z</time>
            </trkpt>
            <trkpt lon="100.993575" lat="14.495223">
                <ele>37.630000</ele>
                <time>2014-11-02T04:24:11Z</time>
            </trkpt>
            <trkpt lon="100.993330" lat="14.495288">
                <ele>37.150000</ele>
                <time>2014-11-02T04:24:16Z</time>
            </trkpt>
            <trkpt lon="100.992268" lat="14.495744">
                <ele>37.150000</ele>
                <time>2014-11-02T04:24:38Z</time>
            </trkpt>
            <trkpt lon="100.991439" lat="14.495933">
                <ele>36.190000</ele>
                <time>2014-11-02T04:24:55Z</time>
            </trkpt>
            <trkpt lon="100.990899" lat="14.495971">
                <ele>35.230000</ele>
                <time>2014-11-02T04:25:10Z</time>
            </trkpt>
            <trkpt lon="100.990893" lat="14.495982">
                <ele>35.230000</ele>
                <time>2014-11-02T04:25:13Z</time>
            </trkpt>
            <trkpt lon="100.990889" lat="14.496002">
                <ele>33.300000</ele>
                <time>2014-11-02T04:25:15Z</time>
            </trkpt>
            <trkpt lon="100.990891" lat="14.496021">
                <ele>36.670000</ele>
                <time>2014-11-02T04:25:16Z</time>
            </trkpt>
            <trkpt lon="100.990901" lat="14.496042">
                <ele>34.740000</ele>
                <time>2014-11-02T04:25:17Z</time>
            </trkpt>
            <trkpt lon="100.990907" lat="14.496068">
                <ele>36.190000</ele>
                <time>2014-11-02T04:25:18Z</time>
            </trkpt>
            <trkpt lon="100.990910" lat="14.496095">
                <ele>36.190000</ele>
                <time>2014-11-02T04:25:19Z</time>
            </trkpt>
            <trkpt lon="100.991066" lat="14.496535">
                <ele>36.190000</ele>
                <time>2014-11-02T04:25:33Z</time>
            </trkpt>
            <trkpt lon="100.991239" lat="14.497070">
                <ele>36.670000</ele>
                <time>2014-11-02T04:25:47Z</time>
            </trkpt>
            <trkpt lon="100.991454" lat="14.497699">
                <ele>35.710000</ele>
                <time>2014-11-02T04:26:03Z</time>
            </trkpt>
            <trkpt lon="100.991465" lat="14.497827">
                <ele>36.190000</ele>
                <time>2014-11-02T04:26:06Z</time>
            </trkpt>
            <trkpt lon="100.991452" lat="14.497870">
                <ele>35.710000</ele>
                <time>2014-11-02T04:26:07Z</time>
            </trkpt>
            <trkpt lon="100.991430" lat="14.497910">
                <ele>36.670000</ele>
                <time>2014-11-02T04:26:08Z</time>
            </trkpt>
            <trkpt lon="100.991403" lat="14.497945">
                <ele>36.190000</ele>
                <time>2014-11-02T04:26:09Z</time>
            </trkpt>
            <trkpt lon="100.991377" lat="14.497979">
                <ele>35.710000</ele>
                <time>2014-11-02T04:26:10Z</time>
            </trkpt>
            <trkpt lon="100.991059" lat="14.498393">
                <ele>35.710000</ele>
                <time>2014-11-02T04:26:21Z</time>
            </trkpt>
            <trkpt lon="100.990797" lat="14.498732">
                <ele>36.190000</ele>
                <time>2014-11-02T04:26:30Z</time>
            </trkpt>
            <trkpt lon="100.990776" lat="14.498776">
                <ele>36.670000</ele>
                <time>2014-11-02T04:26:31Z</time>
            </trkpt>
            <trkpt lon="100.990693" lat="14.499103">
                <ele>36.670000</ele>
                <time>2014-11-02T04:26:38Z</time>
            </trkpt>
            <trkpt lon="100.990710" lat="14.500007">
                <ele>36.190000</ele>
                <time>2014-11-02T04:26:56Z</time>
            </trkpt>
            <trkpt lon="100.990702" lat="14.500049">
                <ele>36.670000</ele>
                <time>2014-11-02T04:26:57Z</time>
            </trkpt>
            <trkpt lon="100.990688" lat="14.500088">
                <ele>37.150000</ele>
                <time>2014-11-02T04:26:58Z</time>
            </trkpt>
            <trkpt lon="100.990672" lat="14.500126">
                <ele>35.710000</ele>
                <time>2014-11-02T04:26:59Z</time>
            </trkpt>
            <trkpt lon="100.990652" lat="14.500161">
                <ele>36.190000</ele>
                <time>2014-11-02T04:27:00Z</time>
            </trkpt>
            <trkpt lon="100.990630" lat="14.500190">
                <ele>36.670000</ele>
                <time>2014-11-02T04:27:01Z</time>
            </trkpt>
            <trkpt lon="100.990608" lat="14.500214">
                <ele>35.710000</ele>
                <time>2014-11-02T04:27:02Z</time>
            </trkpt>
            <trkpt lon="100.990443" lat="14.500302">
                <ele>36.190000</ele>
                <time>2014-11-02T04:27:09Z</time>
            </trkpt>
            <trkpt lon="100.990332" lat="14.500218">
                <ele>35.230000</ele>
                <time>2014-11-02T04:27:12Z</time>
            </trkpt>
            <trkpt lon="100.990226" lat="14.500095">
                <ele>33.780000</ele>
                <time>2014-11-02T04:27:15Z</time>
            </trkpt>
            <trkpt lon="100.990015" lat="14.499849">
                <ele>35.230000</ele>
                <time>2014-11-02T04:27:22Z</time>
            </trkpt>
            <trkpt lon="100.989633" lat="14.499718">
                <ele>34.260000</ele>
                <time>2014-11-02T04:27:31Z</time>
            </trkpt>
            <trkpt lon="100.989407" lat="14.499359">
                <ele>33.300000</ele>
                <time>2014-11-02T04:27:41Z</time>
            </trkpt>
            <trkpt lon="100.989292" lat="14.499284">
                <ele>34.740000</ele>
                <time>2014-11-02T04:27:45Z</time>
            </trkpt>
            <trkpt lon="100.989094" lat="14.499151">
                <ele>34.740000</ele>
                <time>2014-11-02T04:27:52Z</time>
            </trkpt>
            <trkpt lon="100.988946" lat="14.498631">
                <ele>34.740000</ele>
                <time>2014-11-02T04:28:06Z</time>
            </trkpt>
            <trkpt lon="100.988892" lat="14.498329">
                <ele>34.740000</ele>
                <time>2014-11-02T04:28:15Z</time>
            </trkpt>
            <trkpt lon="100.988897" lat="14.498227">
                <ele>35.230000</ele>
                <time>2014-11-02T04:28:17Z</time>
            </trkpt>
            <trkpt lon="100.988735" lat="14.497687">
                <ele>35.230000</ele>
                <time>2014-11-02T04:28:30Z</time>
            </trkpt>
            <trkpt lon="100.988690" lat="14.497515">
                <ele>35.230000</ele>
                <time>2014-11-02T04:28:34Z</time>
            </trkpt>
            <trkpt lon="100.988663" lat="14.497326">
                <ele>35.230000</ele>
                <time>2014-11-02T04:28:38Z</time>
            </trkpt>
            <trkpt lon="100.988617" lat="14.497141">
                <ele>35.230000</ele>
                <time>2014-11-02T04:28:42Z</time>
            </trkpt>
            <trkpt lon="100.988531" lat="14.496920">
                <ele>35.230000</ele>
                <time>2014-11-02T04:28:47Z</time>
            </trkpt>
            <trkpt lon="100.988493" lat="14.496837">
                <ele>35.710000</ele>
                <time>2014-11-02T04:28:49Z</time>
            </trkpt>
            <trkpt lon="100.988451" lat="14.496708">
                <ele>35.230000</ele>
                <time>2014-11-02T04:28:52Z</time>
            </trkpt>
            <trkpt lon="100.988257" lat="14.496142">
                <ele>35.710000</ele>
                <time>2014-11-02T04:29:06Z</time>
            </trkpt>
            <trkpt lon="100.988234" lat="14.496122">
                <ele>35.230000</ele>
                <time>2014-11-02T04:29:07Z</time>
            </trkpt>
            <trkpt lon="100.988200" lat="14.496114">
                <ele>35.230000</ele>
                <time>2014-11-02T04:29:08Z</time>
            </trkpt>
            <trkpt lon="100.987852" lat="14.496113">
                <ele>36.190000</ele>
                <time>2014-11-02T04:29:17Z</time>
            </trkpt>
            <trkpt lon="100.987811" lat="14.496102">
                <ele>35.230000</ele>
                <time>2014-11-02T04:29:18Z</time>
            </trkpt>
            <trkpt lon="100.987766" lat="14.496097">
                <ele>35.230000</ele>
                <time>2014-11-02T04:29:19Z</time>
            </trkpt>
            <trkpt lon="100.987722" lat="14.496099">
                <ele>35.710000</ele>
                <time>2014-11-02T04:29:20Z</time>
            </trkpt>
            <trkpt lon="100.987678" lat="14.496105">
                <ele>35.230000</ele>
                <time>2014-11-02T04:29:21Z</time>
            </trkpt>
            <trkpt lon="100.987634" lat="14.496113">
                <ele>36.190000</ele>
                <time>2014-11-02T04:29:22Z</time>
            </trkpt>
            <trkpt lon="100.986677" lat="14.496488">
                <ele>35.230000</ele>
                <time>2014-11-02T04:29:42Z</time>
            </trkpt>
            <trkpt lon="100.985737" lat="14.496841">
                <ele>36.190000</ele>
                <time>2014-11-02T04:30:01Z</time>
            </trkpt>
            <trkpt lon="100.985686" lat="14.496853">
                <ele>35.710000</ele>
                <time>2014-11-02T04:30:02Z</time>
            </trkpt>
            <trkpt lon="100.985383" lat="14.496896">
                <ele>34.740000</ele>
                <time>2014-11-02T04:30:08Z</time>
            </trkpt>
            <trkpt lon="100.984976" lat="14.497012">
                <ele>34.740000</ele>
                <time>2014-11-02T04:30:21Z</time>
            </trkpt>
            <trkpt lon="100.984689" lat="14.497074">
                <ele>33.780000</ele>
                <time>2014-11-02T04:30:30Z</time>
            </trkpt>
            <trkpt lon="100.984611" lat="14.496970">
                <ele>34.260000</ele>
                <time>2014-11-02T04:30:33Z</time>
            </trkpt>
            <trkpt lon="100.984540" lat="14.496015">
                <ele>33.780000</ele>
                <time>2014-11-02T04:30:52Z</time>
            </trkpt>
            <trkpt lon="100.984525" lat="14.495966">
                <ele>34.260000</ele>
                <time>2014-11-02T04:30:53Z</time>
            </trkpt>
            <trkpt lon="100.984528" lat="14.495768">
                <ele>33.300000</ele>
                <time>2014-11-02T04:30:57Z</time>
            </trkpt>
            <trkpt lon="100.984614" lat="14.494798">
                <ele>34.260000</ele>
                <time>2014-11-02T04:31:17Z</time>
            </trkpt>
            <trkpt lon="100.984636" lat="14.494016">
                <ele>34.260000</ele>
                <time>2014-11-02T04:31:33Z</time>
            </trkpt>
            <trkpt lon="100.984658" lat="14.493171">
                <ele>33.300000</ele>
                <time>2014-11-02T04:31:48Z</time>
            </trkpt>
            <trkpt lon="100.984704" lat="14.492907">
                <ele>33.780000</ele>
                <time>2014-11-02T04:31:53Z</time>
            </trkpt>
            <trkpt lon="100.984692" lat="14.492524">
                <ele>33.300000</ele>
                <time>2014-11-02T04:32:01Z</time>
            </trkpt>
            <trkpt lon="100.984683" lat="14.492156">
                <ele>32.820000</ele>
                <time>2014-11-02T04:32:08Z</time>
            </trkpt>
            <trkpt lon="100.984696" lat="14.492005">
                <ele>33.300000</ele>
                <time>2014-11-02T04:32:11Z</time>
            </trkpt>
            <trkpt lon="100.984745" lat="14.491295">
                <ele>33.780000</ele>
                <time>2014-11-02T04:32:26Z</time>
            </trkpt>
            <trkpt lon="100.984720" lat="14.490485">
                <ele>33.300000</ele>
                <time>2014-11-02T04:32:44Z</time>
            </trkpt>
            <trkpt lon="100.984455" lat="14.490453">
                <ele>34.260000</ele>
                <time>2014-11-02T04:32:51Z</time>
            </trkpt>
            <trkpt lon="100.984415" lat="14.490033">
                <ele>33.780000</ele>
                <time>2014-11-02T04:33:02Z</time>
            </trkpt>
            <trkpt lon="100.984435" lat="14.489916">
                <ele>34.260000</ele>
                <time>2014-11-02T04:33:05Z</time>
            </trkpt>
            <trkpt lon="100.984452" lat="14.489785">
                <ele>33.780000</ele>
                <time>2014-11-02T04:33:08Z</time>
            </trkpt>
            <trkpt lon="100.984355" lat="14.489411">
                <ele>33.780000</ele>
                <time>2014-11-02T04:33:18Z</time>
            </trkpt>
            <trkpt lon="100.984247" lat="14.489407">
                <ele>33.300000</ele>
                <time>2014-11-02T04:33:21Z</time>
            </trkpt>
            <trkpt lon="100.984107" lat="14.489291">
                <ele>34.260000</ele>
                <time>2014-11-02T04:33:26Z</time>
            </trkpt>
            <trkpt lon="100.983762" lat="14.488922">
                <ele>33.300000</ele>
                <time>2014-11-02T04:33:39Z</time>
            </trkpt>
            <trkpt lon="100.983681" lat="14.488925">
                <ele>32.820000</ele>
                <time>2014-11-02T04:33:43Z</time>
            </trkpt>
            <trkpt lon="100.983639" lat="14.488964">
                <ele>32.820000</ele>
                <time>2014-11-02T04:33:46Z</time>
            </trkpt>
            <trkpt lon="100.983452" lat="14.488914">
                <ele>33.780000</ele>
                <time>2014-11-02T04:33:54Z</time>
            </trkpt>
            <trkpt lon="100.983402" lat="14.488806">
                <ele>33.780000</ele>
                <time>2014-11-02T04:33:58Z</time>
            </trkpt>
            <trkpt lon="100.983167" lat="14.488335">
                <ele>33.780000</ele>
                <time>2014-11-02T04:34:13Z</time>
            </trkpt>
            <trkpt lon="100.983008" lat="14.487973">
                <ele>33.300000</ele>
                <time>2014-11-02T04:34:23Z</time>
            </trkpt>
            <trkpt lon="100.982954" lat="14.487970">
                <ele>33.300000</ele>
                <time>2014-11-02T04:34:25Z</time>
            </trkpt>
            <trkpt lon="100.982927" lat="14.487987">
                <ele>33.300000</ele>
                <time>2014-11-02T04:34:26Z</time>
            </trkpt>
            <trkpt lon="100.982900" lat="14.488006">
                <ele>34.260000</ele>
                <time>2014-11-02T04:34:27Z</time>
            </trkpt>
            <trkpt lon="100.982343" lat="14.488309">
                <ele>33.300000</ele>
                <time>2014-11-02T04:34:40Z</time>
            </trkpt>
            <trkpt lon="100.981299" lat="14.488851">
                <ele>32.820000</ele>
                <time>2014-11-02T04:35:01Z</time>
            </trkpt>
            <trkpt lon="100.980227" lat="14.489404">
                <ele>33.300000</ele>
                <time>2014-11-02T04:35:22Z</time>
            </trkpt>
            <trkpt lon="100.979003" lat="14.490024">
                <ele>33.780000</ele>
                <time>2014-11-02T04:35:46Z</time>
            </trkpt>
            <trkpt lon="100.977951" lat="14.490546">
                <ele>32.820000</ele>
                <time>2014-11-02T04:36:06Z</time>
            </trkpt>
            <trkpt lon="100.976968" lat="14.490962">
                <ele>32.820000</ele>
                <time>2014-11-02T04:36:24Z</time>
            </trkpt>
            <trkpt lon="100.975788" lat="14.491429">
                <ele>32.340000</ele>
                <time>2014-11-02T04:36:45Z</time>
            </trkpt>
            <trkpt lon="100.974541" lat="14.491937">
                <ele>32.340000</ele>
                <time>2014-11-02T04:37:07Z</time>
            </trkpt>
            <trkpt lon="100.973425" lat="14.492565">
                <ele>31.380000</ele>
                <time>2014-11-02T04:37:28Z</time>
            </trkpt>
            <trkpt lon="100.972483" lat="14.493107">
                <ele>31.380000</ele>
                <time>2014-11-02T04:37:46Z</time>
            </trkpt>
            <trkpt lon="100.971902" lat="14.493453">
                <ele>31.380000</ele>
                <time>2014-11-02T04:37:58Z</time>
            </trkpt>
            <trkpt lon="100.971849" lat="14.493471">
                <ele>31.860000</ele>
                <time>2014-11-02T04:37:59Z</time>
            </trkpt>
            <trkpt lon="100.971793" lat="14.493482">
                <ele>31.380000</ele>
                <time>2014-11-02T04:38:00Z</time>
            </trkpt>
            <trkpt lon="100.971157" lat="14.493713">
                <ele>30.900000</ele>
                <time>2014-11-02T04:38:12Z</time>
            </trkpt>
            <trkpt lon="100.971114" lat="14.493747">
                <ele>31.380000</ele>
                <time>2014-11-02T04:38:13Z</time>
            </trkpt>
            <trkpt lon="100.971079" lat="14.493785">
                <ele>30.900000</ele>
                <time>2014-11-02T04:38:14Z</time>
            </trkpt>
            <trkpt lon="100.971050" lat="14.493829">
                <ele>30.900000</ele>
                <time>2014-11-02T04:38:15Z</time>
            </trkpt>
            <trkpt lon="100.971032" lat="14.493880">
                <ele>31.380000</ele>
                <time>2014-11-02T04:38:16Z</time>
            </trkpt>
            <trkpt lon="100.971024" lat="14.493932">
                <ele>31.380000</ele>
                <time>2014-11-02T04:38:17Z</time>
            </trkpt>
            <trkpt lon="100.971018" lat="14.493984">
                <ele>30.900000</ele>
                <time>2014-11-02T04:38:18Z</time>
            </trkpt>
            <trkpt lon="100.970967" lat="14.494909">
                <ele>30.420000</ele>
                <time>2014-11-02T04:38:35Z</time>
            </trkpt>
            <trkpt lon="100.970956" lat="14.494954">
                <ele>30.900000</ele>
                <time>2014-11-02T04:38:36Z</time>
            </trkpt>
            <trkpt lon="100.970924" lat="14.494988">
                <ele>30.900000</ele>
                <time>2014-11-02T04:38:37Z</time>
            </trkpt>
            <trkpt lon="100.970884" lat="14.495004">
                <ele>30.900000</ele>
                <time>2014-11-02T04:38:38Z</time>
            </trkpt>
            <trkpt lon="100.970838" lat="14.495011">
                <ele>31.380000</ele>
                <time>2014-11-02T04:38:39Z</time>
            </trkpt>
            <trkpt lon="100.970788" lat="14.495015">
                <ele>31.380000</ele>
                <time>2014-11-02T04:38:40Z</time>
            </trkpt>
            <trkpt lon="100.970410" lat="14.495039">
                <ele>31.860000</ele>
                <time>2014-11-02T04:38:47Z</time>
            </trkpt>
            <trkpt lon="100.970250" lat="14.495009">
                <ele>31.860000</ele>
                <time>2014-11-02T04:38:50Z</time>
            </trkpt>
            <trkpt lon="100.970197" lat="14.495007">
                <ele>30.900000</ele>
                <time>2014-11-02T04:38:51Z</time>
            </trkpt>
            <trkpt lon="100.969212" lat="14.495021">
                <ele>31.380000</ele>
                <time>2014-11-02T04:39:09Z</time>
            </trkpt>
            <trkpt lon="100.968929" lat="14.495045">
                <ele>30.900000</ele>
                <time>2014-11-02T04:39:15Z</time>
            </trkpt>
            <trkpt lon="100.968888" lat="14.495054">
                <ele>30.420000</ele>
                <time>2014-11-02T04:39:16Z</time>
            </trkpt>
            <trkpt lon="100.968848" lat="14.495063">
                <ele>30.900000</ele>
                <time>2014-11-02T04:39:17Z</time>
            </trkpt>
            <trkpt lon="100.968810" lat="14.495069">
                <ele>30.900000</ele>
                <time>2014-11-02T04:39:18Z</time>
            </trkpt>
            <trkpt lon="100.968778" lat="14.495072">
                <ele>30.420000</ele>
                <time>2014-11-02T04:39:19Z</time>
            </trkpt>
            <trkpt lon="100.968760" lat="14.495075">
                <ele>31.380000</ele>
                <time>2014-11-02T04:39:20Z</time>
            </trkpt>
            <trkpt lon="100.968747" lat="14.495073">
                <ele>30.900000</ele>
                <time>2014-11-02T04:39:21Z</time>
            </trkpt>
            <trkpt lon="100.968732" lat="14.495070">
                <ele>31.380000</ele>
                <time>2014-11-02T04:39:22Z</time>
            </trkpt>
            <trkpt lon="100.968717" lat="14.495074">
                <ele>30.900000</ele>
                <time>2014-11-02T04:39:23Z</time>
            </trkpt>
            <trkpt lon="100.968710" lat="14.495084">
                <ele>31.380000</ele>
                <time>2014-11-02T04:39:24Z</time>
            </trkpt>
            <trkpt lon="100.968708" lat="14.495100">
                <ele>30.420000</ele>
                <time>2014-11-02T04:39:25Z</time>
            </trkpt>
            <trkpt lon="100.968817" lat="14.495555">
                <ele>30.900000</ele>
                <time>2014-11-02T04:39:39Z</time>
            </trkpt>
            <trkpt lon="100.968973" lat="14.496077">
                <ele>31.380000</ele>
                <time>2014-11-02T04:39:52Z</time>
            </trkpt>
            <trkpt lon="100.969093" lat="14.496320">
                <ele>30.900000</ele>
                <time>2014-11-02T04:39:58Z</time>
            </trkpt>
            <trkpt lon="100.969215" lat="14.496624">
                <ele>30.900000</ele>
                <time>2014-11-02T04:40:04Z</time>
            </trkpt>
            <trkpt lon="100.969163" lat="14.496796">
                <ele>28.980000</ele>
                <time>2014-11-02T04:40:08Z</time>
            </trkpt>
            <trkpt lon="100.969027" lat="14.496826">
                <ele>28.980000</ele>
                <time>2014-11-02T04:40:11Z</time>
            </trkpt>
            <trkpt lon="100.968875" lat="14.496812">
                <ele>28.980000</ele>
                <time>2014-11-02T04:40:14Z</time>
            </trkpt>
            <trkpt lon="100.968704" lat="14.496678">
                <ele>29.460000</ele>
                <time>2014-11-02T04:40:19Z</time>
            </trkpt>
            <trkpt lon="100.968610" lat="14.496107">
                <ele>32.340000</ele>
                <time>2014-11-02T04:40:33Z</time>
            </trkpt>
            <trkpt lon="100.968349" lat="14.495169">
                <ele>31.860000</ele>
                <time>2014-11-02T04:40:55Z</time>
            </trkpt>
            <trkpt lon="100.968311" lat="14.495149">
                <ele>31.860000</ele>
                <time>2014-11-02T04:40:56Z</time>
            </trkpt>
            <trkpt lon="100.968266" lat="14.495147">
                <ele>30.900000</ele>
                <time>2014-11-02T04:40:57Z</time>
            </trkpt>
            <trkpt lon="100.968216" lat="14.495159">
                <ele>30.900000</ele>
                <time>2014-11-02T04:40:58Z</time>
            </trkpt>
            <trkpt lon="100.968164" lat="14.495177">
                <ele>30.420000</ele>
                <time>2014-11-02T04:40:59Z</time>
            </trkpt>
            <trkpt lon="100.968056" lat="14.495220">
                <ele>30.420000</ele>
                <time>2014-11-02T04:41:01Z</time>
            </trkpt>
            <trkpt lon="100.968006" lat="14.495248">
                <ele>30.420000</ele>
                <time>2014-11-02T04:41:02Z</time>
            </trkpt>
            <trkpt lon="100.967763" lat="14.495385">
                <ele>30.420000</ele>
                <time>2014-11-02T04:41:07Z</time>
            </trkpt>
            <trkpt lon="100.967662" lat="14.495425">
                <ele>29.940000</ele>
                <time>2014-11-02T04:41:09Z</time>
            </trkpt>
            <trkpt lon="100.966758" lat="14.495877">
                <ele>29.940000</ele>
                <time>2014-11-02T04:41:27Z</time>
            </trkpt>
            <trkpt lon="100.965631" lat="14.496391">
                <ele>30.900000</ele>
                <time>2014-11-02T04:41:48Z</time>
            </trkpt>
            <trkpt lon="100.964572" lat="14.496746">
                <ele>30.420000</ele>
                <time>2014-11-02T04:42:07Z</time>
            </trkpt>
            <trkpt lon="100.963664" lat="14.496894">
                <ele>29.940000</ele>
                <time>2014-11-02T04:42:23Z</time>
            </trkpt>
            <trkpt lon="100.962723" lat="14.496866">
                <ele>29.460000</ele>
                <time>2014-11-02T04:42:39Z</time>
            </trkpt>
            <trkpt lon="100.961689" lat="14.496859">
                <ele>28.980000</ele>
                <time>2014-11-02T04:42:56Z</time>
            </trkpt>
            <trkpt lon="100.961067" lat="14.496848">
                <ele>28.980000</ele>
                <time>2014-11-02T04:43:07Z</time>
            </trkpt>
            <trkpt lon="100.961015" lat="14.496863">
                <ele>29.460000</ele>
                <time>2014-11-02T04:43:08Z</time>
            </trkpt>
            <trkpt lon="100.960968" lat="14.496884">
                <ele>28.980000</ele>
                <time>2014-11-02T04:43:09Z</time>
            </trkpt>
            <trkpt lon="100.960932" lat="14.496915">
                <ele>29.460000</ele>
                <time>2014-11-02T04:43:10Z</time>
            </trkpt>
            <trkpt lon="100.960908" lat="14.496956">
                <ele>29.460000</ele>
                <time>2014-11-02T04:43:11Z</time>
            </trkpt>
            <trkpt lon="100.960895" lat="14.497006">
                <ele>29.460000</ele>
                <time>2014-11-02T04:43:12Z</time>
            </trkpt>
            <trkpt lon="100.960892" lat="14.497063">
                <ele>29.460000</ele>
                <time>2014-11-02T04:43:13Z</time>
            </trkpt>
            <trkpt lon="100.960897" lat="14.497113">
                <ele>28.980000</ele>
                <time>2014-11-02T04:43:14Z</time>
            </trkpt>
            <trkpt lon="100.960922" lat="14.498072">
                <ele>28.980000</ele>
                <time>2014-11-02T04:43:31Z</time>
            </trkpt>
            <trkpt lon="100.960887" lat="14.498869">
                <ele>29.460000</ele>
                <time>2014-11-02T04:43:45Z</time>
            </trkpt>
            <trkpt lon="100.960877" lat="14.498926">
                <ele>28.980000</ele>
                <time>2014-11-02T04:43:46Z</time>
            </trkpt>
            <trkpt lon="100.960806" lat="14.499146">
                <ele>29.460000</ele>
                <time>2014-11-02T04:43:50Z</time>
            </trkpt>
            <trkpt lon="100.960775" lat="14.499197">
                <ele>29.460000</ele>
                <time>2014-11-02T04:43:51Z</time>
            </trkpt>
            <trkpt lon="100.960739" lat="14.499243">
                <ele>29.460000</ele>
                <time>2014-11-02T04:43:52Z</time>
            </trkpt>
            <trkpt lon="100.960700" lat="14.499286">
                <ele>29.460000</ele>
                <time>2014-11-02T04:43:53Z</time>
            </trkpt>
            <trkpt lon="100.960659" lat="14.499327">
                <ele>29.460000</ele>
                <time>2014-11-02T04:43:54Z</time>
            </trkpt>
            <trkpt lon="100.959814" lat="14.499973">
                <ele>28.980000</ele>
                <time>2014-11-02T04:44:12Z</time>
            </trkpt>
            <trkpt lon="100.959561" lat="14.500216">
                <ele>29.460000</ele>
                <time>2014-11-02T04:44:18Z</time>
            </trkpt>
            <trkpt lon="100.959527" lat="14.500263">
                <ele>29.460000</ele>
                <time>2014-11-02T04:44:19Z</time>
            </trkpt>
            <trkpt lon="100.959465" lat="14.500362">
                <ele>28.980000</ele>
                <time>2014-11-02T04:44:21Z</time>
            </trkpt>
            <trkpt lon="100.959428" lat="14.500407">
                <ele>28.500000</ele>
                <time>2014-11-02T04:44:22Z</time>
            </trkpt>
            <trkpt lon="100.959101" lat="14.500877">
                <ele>28.980000</ele>
                <time>2014-11-02T04:44:32Z</time>
            </trkpt>
            <trkpt lon="100.959059" lat="14.500915">
                <ele>28.500000</ele>
                <time>2014-11-02T04:44:33Z</time>
            </trkpt>
            <trkpt lon="100.959012" lat="14.500946">
                <ele>28.500000</ele>
                <time>2014-11-02T04:44:34Z</time>
            </trkpt>
            <trkpt lon="100.958959" lat="14.500969">
                <ele>28.980000</ele>
                <time>2014-11-02T04:44:35Z</time>
            </trkpt>
            <trkpt lon="100.958904" lat="14.500985">
                <ele>28.980000</ele>
                <time>2014-11-02T04:44:36Z</time>
            </trkpt>
            <trkpt lon="100.958850" lat="14.500998">
                <ele>28.980000</ele>
                <time>2014-11-02T04:44:37Z</time>
            </trkpt>
            <trkpt lon="100.958795" lat="14.501015">
                <ele>28.500000</ele>
                <time>2014-11-02T04:44:38Z</time>
            </trkpt>
            <trkpt lon="100.958742" lat="14.501042">
                <ele>28.980000</ele>
                <time>2014-11-02T04:44:39Z</time>
            </trkpt>
            <trkpt lon="100.958579" lat="14.501124">
                <ele>28.980000</ele>
                <time>2014-11-02T04:44:42Z</time>
            </trkpt>
            <trkpt lon="100.958522" lat="14.501133">
                <ele>28.500000</ele>
                <time>2014-11-02T04:44:43Z</time>
            </trkpt>
            <trkpt lon="100.958460" lat="14.501134">
                <ele>28.500000</ele>
                <time>2014-11-02T04:44:44Z</time>
            </trkpt>
            <trkpt lon="100.958399" lat="14.501138">
                <ele>28.500000</ele>
                <time>2014-11-02T04:44:45Z</time>
            </trkpt>
            <trkpt lon="100.958338" lat="14.501150">
                <ele>28.980000</ele>
                <time>2014-11-02T04:44:46Z</time>
            </trkpt>
            <trkpt lon="100.958277" lat="14.501167">
                <ele>28.020000</ele>
                <time>2014-11-02T04:44:47Z</time>
            </trkpt>
            <trkpt lon="100.958219" lat="14.501187">
                <ele>28.500000</ele>
                <time>2014-11-02T04:44:48Z</time>
            </trkpt>
            <trkpt lon="100.958164" lat="14.501211">
                <ele>28.500000</ele>
                <time>2014-11-02T04:44:49Z</time>
            </trkpt>
            <trkpt lon="100.958109" lat="14.501239">
                <ele>27.530000</ele>
                <time>2014-11-02T04:44:50Z</time>
            </trkpt>
            <trkpt lon="100.957766" lat="14.501405">
                <ele>28.980000</ele>
                <time>2014-11-02T04:44:57Z</time>
            </trkpt>
            <trkpt lon="100.957716" lat="14.501412">
                <ele>28.020000</ele>
                <time>2014-11-02T04:44:58Z</time>
            </trkpt>
            <trkpt lon="100.957668" lat="14.501408">
                <ele>28.020000</ele>
                <time>2014-11-02T04:44:59Z</time>
            </trkpt>
            <trkpt lon="100.957622" lat="14.501397">
                <ele>28.500000</ele>
                <time>2014-11-02T04:45:00Z</time>
            </trkpt>
            <trkpt lon="100.957577" lat="14.501387">
                <ele>27.530000</ele>
                <time>2014-11-02T04:45:01Z</time>
            </trkpt>
            <trkpt lon="100.957201" lat="14.501276">
                <ele>28.500000</ele>
                <time>2014-11-02T04:45:13Z</time>
            </trkpt>
            <trkpt lon="100.957195" lat="14.501007">
                <ele>28.500000</ele>
                <time>2014-11-02T04:45:26Z</time>
            </trkpt>
            <trkpt lon="100.957099" lat="14.500727">
                <ele>28.020000</ele>
                <time>2014-11-02T04:45:41Z</time>
            </trkpt>
            <trkpt lon="100.957037" lat="14.500367">
                <ele>29.460000</ele>
                <time>2014-11-02T04:45:56Z</time>
            </trkpt>
            <trkpt lon="100.956882" lat="14.500023">
                <ele>30.420000</ele>
                <time>2014-11-02T04:46:11Z</time>
            </trkpt>
            <trkpt lon="100.956739" lat="14.499637">
                <ele>29.460000</ele>
                <time>2014-11-02T04:46:25Z</time>
            </trkpt>
            <trkpt lon="100.956428" lat="14.499227">
                <ele>29.940000</ele>
                <time>2014-11-02T04:46:42Z</time>
            </trkpt>
            <trkpt lon="100.956169" lat="14.499029">
                <ele>30.420000</ele>
                <time>2014-11-02T04:46:52Z</time>
            </trkpt>
            <trkpt lon="100.955945" lat="14.499178">
                <ele>31.380000</ele>
                <time>2014-11-02T04:47:02Z</time>
            </trkpt>
            <trkpt lon="100.955860" lat="14.499212">
                <ele>29.940000</ele>
                <time>2014-11-02T04:47:05Z</time>
            </trkpt>
            <trkpt lon="100.955504" lat="14.499278">
                <ele>31.380000</ele>
                <time>2014-11-02T04:47:19Z</time>
            </trkpt>
            <trkpt lon="100.954957" lat="14.499136">
                <ele>33.300000</ele>
                <time>2014-11-02T04:47:38Z</time>
            </trkpt>
            <trkpt lon="100.954488" lat="14.498965">
                <ele>33.300000</ele>
                <time>2014-11-02T04:47:54Z</time>
            </trkpt>
            <trkpt lon="100.954167" lat="14.498958">
                <ele>33.780000</ele>
                <time>2014-11-02T04:48:06Z</time>
            </trkpt>
            <trkpt lon="100.953920" lat="14.498799">
                <ele>33.780000</ele>
                <time>2014-11-02T04:48:18Z</time>
            </trkpt>
            <trkpt lon="100.953666" lat="14.498721">
                <ele>35.230000</ele>
                <time>2014-11-02T04:48:29Z</time>
            </trkpt>
            <trkpt lon="100.953298" lat="14.498866">
                <ele>36.670000</ele>
                <time>2014-11-02T04:48:43Z</time>
            </trkpt>
            <trkpt lon="100.953215" lat="14.499012">
                <ele>35.710000</ele>
                <time>2014-11-02T04:48:50Z</time>
            </trkpt>
            <trkpt lon="100.952898" lat="14.499127">
                <ele>36.670000</ele>
                <time>2014-11-02T04:49:04Z</time>
            </trkpt>
            <trkpt lon="100.952647" lat="14.499328">
                <ele>36.670000</ele>
                <time>2014-11-02T04:49:20Z</time>
            </trkpt>
            <trkpt lon="100.952538" lat="14.499404">
                <ele>37.630000</ele>
                <time>2014-11-02T04:49:26Z</time>
            </trkpt>
            <trkpt lon="100.952398" lat="14.499478">
                <ele>37.630000</ele>
                <time>2014-11-02T04:49:35Z</time>
            </trkpt>
            <trkpt lon="100.952185" lat="14.499717">
                <ele>40.030000</ele>
                <time>2014-11-02T04:49:54Z</time>
            </trkpt>
            <trkpt lon="100.952139" lat="14.500036">
                <ele>40.510000</ele>
                <time>2014-11-02T04:50:10Z</time>
            </trkpt>
            <trkpt lon="100.952179" lat="14.500313">
                <ele>40.030000</ele>
                <time>2014-11-02T04:50:21Z</time>
            </trkpt>
            <trkpt lon="100.952253" lat="14.500393">
                <ele>39.550000</ele>
                <time>2014-11-02T04:50:25Z</time>
            </trkpt>
            <trkpt lon="100.952448" lat="14.500476">
                <ele>40.030000</ele>
                <time>2014-11-02T04:50:30Z</time>
            </trkpt>
            <trkpt lon="100.952614" lat="14.500686">
                <ele>36.670000</ele>
                <time>2014-11-02T04:50:36Z</time>
            </trkpt>
            <trkpt lon="100.952841" lat="14.501061">
                <ele>36.670000</ele>
                <time>2014-11-02T04:50:46Z</time>
            </trkpt>
            <trkpt lon="100.953013" lat="14.501223">
                <ele>36.190000</ele>
                <time>2014-11-02T04:50:51Z</time>
            </trkpt>
            <trkpt lon="100.953103" lat="14.501345">
                <ele>35.710000</ele>
                <time>2014-11-02T04:50:54Z</time>
            </trkpt>
            <trkpt lon="100.953215" lat="14.501506">
                <ele>35.710000</ele>
                <time>2014-11-02T04:50:58Z</time>
            </trkpt>
            <trkpt lon="100.953221" lat="14.501845">
                <ele>33.780000</ele>
                <time>2014-11-02T04:51:06Z</time>
            </trkpt>
            <trkpt lon="100.953159" lat="14.502184">
                <ele>32.820000</ele>
                <time>2014-11-02T04:51:17Z</time>
            </trkpt>
            <trkpt lon="100.953156" lat="14.502346">
                <ele>32.820000</ele>
                <time>2014-11-02T04:51:23Z</time>
            </trkpt>
            <trkpt lon="100.953134" lat="14.502383">
                <ele>33.300000</ele>
                <time>2014-11-02T04:51:25Z</time>
            </trkpt>
            <trkpt lon="100.953115" lat="14.502552">
                <ele>31.860000</ele>
                <time>2014-11-02T04:51:32Z</time>
            </trkpt>
            <trkpt lon="100.952929" lat="14.502794">
                <ele>33.780000</ele>
                <time>2014-11-02T04:51:46Z</time>
            </trkpt>
            <trkpt lon="100.952709" lat="14.503049">
                <ele>35.710000</ele>
                <time>2014-11-02T04:52:01Z</time>
            </trkpt>
            <trkpt lon="100.952385" lat="14.503414">
                <ele>36.190000</ele>
                <time>2014-11-02T04:52:20Z</time>
            </trkpt>
            <trkpt lon="100.952112" lat="14.503877">
                <ele>37.150000</ele>
                <time>2014-11-02T04:52:37Z</time>
            </trkpt>
            <trkpt lon="100.952018" lat="14.504485">
                <ele>36.670000</ele>
                <time>2014-11-02T04:52:52Z</time>
            </trkpt>
            <trkpt lon="100.952000" lat="14.504620">
                <ele>35.230000</ele>
                <time>2014-11-02T04:52:55Z</time>
            </trkpt>
            <trkpt lon="100.952007" lat="14.504859">
                <ele>36.190000</ele>
                <time>2014-11-02T04:53:00Z</time>
            </trkpt>
            <trkpt lon="100.952013" lat="14.504997">
                <ele>35.710000</ele>
                <time>2014-11-02T04:53:03Z</time>
            </trkpt>
            <trkpt lon="100.951995" lat="14.505178">
                <ele>35.230000</ele>
                <time>2014-11-02T04:53:07Z</time>
            </trkpt>
            <trkpt lon="100.951831" lat="14.505522">
                <ele>34.740000</ele>
                <time>2014-11-02T04:53:16Z</time>
            </trkpt>
            <trkpt lon="100.951831" lat="14.505604">
                <ele>35.230000</ele>
                <time>2014-11-02T04:53:18Z</time>
            </trkpt>
            <trkpt lon="100.951717" lat="14.505845">
                <ele>34.260000</ele>
                <time>2014-11-02T04:53:24Z</time>
            </trkpt>
            <trkpt lon="100.951588" lat="14.506055">
                <ele>34.260000</ele>
                <time>2014-11-02T04:53:31Z</time>
            </trkpt>
            <trkpt lon="100.951655" lat="14.506095">
                <ele>33.300000</ele>
                <time>2014-11-02T04:53:36Z</time>
            </trkpt>
            <trkpt lon="100.951708" lat="14.506119">
                <ele>33.300000</ele>
                <time>2014-11-02T04:53:39Z</time>
            </trkpt>
            <trkpt lon="100.951525" lat="14.506380">
                <ele>32.340000</ele>
                <time>2014-11-02T04:53:49Z</time>
            </trkpt>
            <trkpt lon="100.951458" lat="14.506561">
                <ele>32.820000</ele>
                <time>2014-11-02T04:53:54Z</time>
            </trkpt>
            <trkpt lon="100.951293" lat="14.506882">
                <ele>33.300000</ele>
                <time>2014-11-02T04:54:05Z</time>
            </trkpt>
            <trkpt lon="100.951007" lat="14.507054">
                <ele>34.740000</ele>
                <time>2014-11-02T04:54:17Z</time>
            </trkpt>
            <trkpt lon="100.950612" lat="14.507153">
                <ele>35.710000</ele>
                <time>2014-11-02T04:54:30Z</time>
            </trkpt>
            <trkpt lon="100.950207" lat="14.507348">
                <ele>35.230000</ele>
                <time>2014-11-02T04:54:44Z</time>
            </trkpt>
            <trkpt lon="100.950094" lat="14.507347">
                <ele>35.710000</ele>
                <time>2014-11-02T04:54:47Z</time>
            </trkpt>
            <trkpt lon="100.949741" lat="14.507309">
                <ele>35.230000</ele>
                <time>2014-11-02T04:54:58Z</time>
            </trkpt>
            <trkpt lon="100.949413" lat="14.507381">
                <ele>36.670000</ele>
                <time>2014-11-02T04:55:11Z</time>
            </trkpt>
            <trkpt lon="100.949036" lat="14.507454">
                <ele>36.670000</ele>
                <time>2014-11-02T04:55:22Z</time>
            </trkpt>
            <trkpt lon="100.948871" lat="14.507562">
                <ele>35.230000</ele>
                <time>2014-11-02T04:55:27Z</time>
            </trkpt>
            <trkpt lon="100.948819" lat="14.507660">
                <ele>35.710000</ele>
                <time>2014-11-02T04:55:30Z</time>
            </trkpt>
            <trkpt lon="100.948790" lat="14.507737">
                <ele>34.740000</ele>
                <time>2014-11-02T04:55:32Z</time>
            </trkpt>
            <trkpt lon="100.948674" lat="14.507872">
                <ele>35.710000</ele>
                <time>2014-11-02T04:55:36Z</time>
            </trkpt>
            <trkpt lon="100.948505" lat="14.508015">
                <ele>35.710000</ele>
                <time>2014-11-02T04:55:41Z</time>
            </trkpt>
            <trkpt lon="100.948235" lat="14.508256">
                <ele>37.150000</ele>
                <time>2014-11-02T04:55:51Z</time>
            </trkpt>
            <trkpt lon="100.948130" lat="14.508344">
                <ele>37.630000</ele>
                <time>2014-11-02T04:55:55Z</time>
            </trkpt>
            <trkpt lon="100.947902" lat="14.508549">
                <ele>38.590000</ele>
                <time>2014-11-02T04:56:06Z</time>
            </trkpt>
            <trkpt lon="100.947713" lat="14.508801">
                <ele>38.590000</ele>
                <time>2014-11-02T04:56:18Z</time>
            </trkpt>
            <trkpt lon="100.947589" lat="14.509143">
                <ele>39.550000</ele>
                <time>2014-11-02T04:56:34Z</time>
            </trkpt>
            <trkpt lon="100.947588" lat="14.509259">
                <ele>38.110000</ele>
                <time>2014-11-02T04:56:37Z</time>
            </trkpt>
            <trkpt lon="100.947431" lat="14.509746">
                <ele>37.150000</ele>
                <time>2014-11-02T04:56:48Z</time>
            </trkpt>
            <trkpt lon="100.947400" lat="14.509825">
                <ele>37.150000</ele>
                <time>2014-11-02T04:56:50Z</time>
            </trkpt>
            <trkpt lon="100.947282" lat="14.509960">
                <ele>37.150000</ele>
                <time>2014-11-02T04:56:54Z</time>
            </trkpt>
            <trkpt lon="100.947131" lat="14.510080">
                <ele>36.670000</ele>
                <time>2014-11-02T04:56:58Z</time>
            </trkpt>
            <trkpt lon="100.946987" lat="14.510374">
                <ele>34.740000</ele>
                <time>2014-11-02T04:57:06Z</time>
            </trkpt>
            <trkpt lon="100.946847" lat="14.510494">
                <ele>34.740000</ele>
                <time>2014-11-02T04:57:10Z</time>
            </trkpt>
            <trkpt lon="100.946716" lat="14.510699">
                <ele>33.300000</ele>
                <time>2014-11-02T04:57:15Z</time>
            </trkpt>
            <trkpt lon="100.946652" lat="14.510785">
                <ele>32.340000</ele>
                <time>2014-11-02T04:57:17Z</time>
            </trkpt>
            <trkpt lon="100.946452" lat="14.511003">
                <ele>32.820000</ele>
                <time>2014-11-02T04:57:23Z</time>
            </trkpt>
            <trkpt lon="100.946209" lat="14.511272">
                <ele>32.340000</ele>
                <time>2014-11-02T04:57:32Z</time>
            </trkpt>
            <trkpt lon="100.946124" lat="14.511554">
                <ele>30.420000</ele>
                <time>2014-11-02T04:57:41Z</time>
            </trkpt>
            <trkpt lon="100.945869" lat="14.511785">
                <ele>30.900000</ele>
                <time>2014-11-02T04:57:52Z</time>
            </trkpt>
            <trkpt lon="100.945616" lat="14.511928">
                <ele>30.900000</ele>
                <time>2014-11-02T04:58:03Z</time>
            </trkpt>
            <trkpt lon="100.945349" lat="14.511989">
                <ele>31.380000</ele>
                <time>2014-11-02T04:58:14Z</time>
            </trkpt>
            <trkpt lon="100.945118" lat="14.512074">
                <ele>31.860000</ele>
                <time>2014-11-02T04:58:28Z</time>
            </trkpt>
            <trkpt lon="100.945083" lat="14.512063">
                <ele>30.420000</ele>
                <time>2014-11-02T04:58:51Z</time>
            </trkpt>
            <trkpt lon="100.945080" lat="14.512063">
                <ele>30.900000</ele>
                <time>2014-11-02T04:58:52Z</time>
            </trkpt>
            <trkpt lon="100.945019" lat="14.512047">
                <ele>30.900000</ele>
                <time>2014-11-02T04:58:56Z</time>
            </trkpt>
            <trkpt lon="100.944808" lat="14.512144">
                <ele>30.420000</ele>
                <time>2014-11-02T04:59:07Z</time>
            </trkpt>
            <trkpt lon="100.944518" lat="14.512160">
                <ele>31.380000</ele>
                <time>2014-11-02T04:59:21Z</time>
            </trkpt>
            <trkpt lon="100.944502" lat="14.512163">
                <ele>31.380000</ele>
                <time>2014-11-02T04:59:22Z</time>
            </trkpt>
            <trkpt lon="100.944566" lat="14.512145">
                <ele>31.380000</ele>
                <time>2014-11-02T04:59:30Z</time>
            </trkpt>
            <trkpt lon="100.944618" lat="14.512151">
                <ele>31.860000</ele>
                <time>2014-11-02T04:59:32Z</time>
            </trkpt>
            <trkpt lon="100.944979" lat="14.512037">
                <ele>30.420000</ele>
                <time>2014-11-02T04:59:44Z</time>
            </trkpt>
            <trkpt lon="100.945132" lat="14.512051">
                <ele>31.860000</ele>
                <time>2014-11-02T04:59:51Z</time>
            </trkpt>
            <trkpt lon="100.945402" lat="14.511898">
                <ele>31.860000</ele>
                <time>2014-11-02T05:00:02Z</time>
            </trkpt>
            <trkpt lon="100.945758" lat="14.511873">
                <ele>30.900000</ele>
                <time>2014-11-02T05:00:14Z</time>
            </trkpt>
            <trkpt lon="100.945960" lat="14.512104">
                <ele>30.420000</ele>
                <time>2014-11-02T05:00:24Z</time>
            </trkpt>
            <trkpt lon="100.946072" lat="14.512493">
                <ele>30.420000</ele>
                <time>2014-11-02T05:00:36Z</time>
            </trkpt>
            <trkpt lon="100.945967" lat="14.512906">
                <ele>29.460000</ele>
                <time>2014-11-02T05:00:48Z</time>
            </trkpt>
            <trkpt lon="100.945719" lat="14.513375">
                <ele>28.500000</ele>
                <time>2014-11-02T05:01:03Z</time>
            </trkpt>
            <trkpt lon="100.945664" lat="14.513660">
                <ele>28.500000</ele>
                <time>2014-11-02T05:01:11Z</time>
            </trkpt>
            <trkpt lon="100.945566" lat="14.514344">
                <ele>25.610000</ele>
                <time>2014-11-02T05:01:27Z</time>
            </trkpt>
            <trkpt lon="100.945571" lat="14.514372">
                <ele>26.090000</ele>
                <time>2014-11-02T05:01:28Z</time>
            </trkpt>
            <trkpt lon="100.945557" lat="14.514491">
                <ele>26.570000</ele>
                <time>2014-11-02T05:01:34Z</time>
            </trkpt>
            <trkpt lon="100.945508" lat="14.514577">
                <ele>26.090000</ele>
                <time>2014-11-02T05:01:48Z</time>
            </trkpt>
            <trkpt lon="100.945496" lat="14.514600">
                <ele>27.050000</ele>
                <time>2014-11-02T05:01:52Z</time>
            </trkpt>
            <trkpt lon="100.945489" lat="14.514833">
                <ele>27.050000</ele>
                <time>2014-11-02T05:02:04Z</time>
            </trkpt>
            <trkpt lon="100.945334" lat="14.515157">
                <ele>26.570000</ele>
                <time>2014-11-02T05:02:16Z</time>
            </trkpt>
            <trkpt lon="100.945047" lat="14.515217">
                <ele>27.530000</ele>
                <time>2014-11-02T05:02:28Z</time>
            </trkpt>
            <trkpt lon="100.944843" lat="14.515112">
                <ele>27.050000</ele>
                <time>2014-11-02T05:02:38Z</time>
            </trkpt>
            <trkpt lon="100.944566" lat="14.515147">
                <ele>27.530000</ele>
                <time>2014-11-02T05:02:51Z</time>
            </trkpt>
            <trkpt lon="100.944247" lat="14.515309">
                <ele>28.980000</ele>
                <time>2014-11-02T05:03:07Z</time>
            </trkpt>
            <trkpt lon="100.943864" lat="14.515319">
                <ele>29.460000</ele>
                <time>2014-11-02T05:03:23Z</time>
            </trkpt>
            <trkpt lon="100.943727" lat="14.515638">
                <ele>30.420000</ele>
                <time>2014-11-02T05:03:38Z</time>
            </trkpt>
            <trkpt lon="100.943566" lat="14.515725">
                <ele>30.900000</ele>
                <time>2014-11-02T05:03:46Z</time>
            </trkpt>
            <trkpt lon="100.943140" lat="14.515786">
                <ele>32.820000</ele>
                <time>2014-11-02T05:04:05Z</time>
            </trkpt>
            <trkpt lon="100.943123" lat="14.515790">
                <ele>32.820000</ele>
                <time>2014-11-02T05:04:06Z</time>
            </trkpt>
            <trkpt lon="100.943099" lat="14.515820">
                <ele>33.780000</ele>
                <time>2014-11-02T05:04:08Z</time>
            </trkpt>
            <trkpt lon="100.943100" lat="14.515843">
                <ele>33.300000</ele>
                <time>2014-11-02T05:04:09Z</time>
            </trkpt>
            <trkpt lon="100.943144" lat="14.516398">
                <ele>33.780000</ele>
                <time>2014-11-02T05:04:25Z</time>
            </trkpt>
            <trkpt lon="100.943148" lat="14.516931">
                <ele>33.780000</ele>
                <time>2014-11-02T05:04:38Z</time>
            </trkpt>
            <trkpt lon="100.942962" lat="14.517855">
                <ele>33.780000</ele>
                <time>2014-11-02T05:04:59Z</time>
            </trkpt>
            <trkpt lon="100.942882" lat="14.518209">
                <ele>33.300000</ele>
                <time>2014-11-02T05:05:11Z</time>
            </trkpt>
            <trkpt lon="100.942946" lat="14.518226">
                <ele>33.780000</ele>
                <time>2014-11-02T05:05:14Z</time>
            </trkpt>
            <trkpt lon="100.943176" lat="14.518196">
                <ele>32.820000</ele>
                <time>2014-11-02T05:05:19Z</time>
            </trkpt>
            <trkpt lon="100.943480" lat="14.518237">
                <ele>30.900000</ele>
                <time>2014-11-02T05:05:28Z</time>
            </trkpt>
        </trkseg>
    </trk>
</gpx>